Observation data for Truscott on 11/11/2019      Previous  Date       Current Mesonet Observations  Soil Data  Daily Summary Page  Observations in Plain Language
KTR1 110600Z 19013KT 17/14 A2979 RMK A01 T01710142  RH  083%=      5-min Rain = 0
KTR1 110601Z 19013KT 17/14 A2979 RMK A01 T01710142  RH  083%=      5-min Rain = 0
KTR1 110602Z 19012KT 17/14 A2979 RMK A01 T01710142  RH  083%=      5-min Rain = 0
KTR1 110603Z 19013KT 17/14 A2979 RMK A01 T01710142  RH  083%=      5-min Rain = 0
KTR1 110604Z 19012KT 17/14 A2979 RMK A01 T01710142  RH  083%=      5-min Rain = 0
KTR1 110605Z 19013KT 17/14 A2979 RMK A01 T01710142  RH  083%=      5-min Rain = 0
KTR1 110606Z 18013KT 17/14 A2979 RMK A01 T01700142  RH  084%=      5-min Rain = 0
KTR1 110607Z 19013KT 17/14 A2979 RMK A01 T01700142  RH  084%=      5-min Rain = 0
KTR1 110608Z 18012KT 17/14 A2979 RMK A01 T01700142  RH  084%=      5-min Rain = 0
KTR1 110609Z 18012KT 17/14 A2979 RMK A01 T01690142  RH  084%=      5-min Rain = 0
KTR1 110610Z 18012KT 17/14 A2979 RMK A01 T01680141  RH  084%=      5-min Rain = 0
KTR1 110611Z 18012KT 17/14 A2979 RMK A01 T01680141  RH  085%=      5-min Rain = 0
KTR1 110612Z 18012KT 17/14 A2979 RMK A01 T01670141  RH  085%=      5-min Rain = 0
KTR1 110613Z 18011KT 17/14 A2979 RMK A01 T01670141  RH  085%=      5-min Rain = 0
KTR1 110614Z 18011KT 17/14 A2979 RMK A01 T01670141  RH  085%=      5-min Rain = 0
KTR1 110615Z 18011KT 17/14 A2979 RMK A01 T01660141  RH  085%=      5-min Rain = 0
KTR1 110616Z 18011KT 17/14 A2979 RMK A01 T01660141  RH  085%=      5-min Rain = 0
KTR1 110617Z 19011KT 17/14 A2979 RMK A01 T01650141  RH  086%=      5-min Rain = 0
KTR1 110618Z 18011KT 17/14 A2979 RMK A01 T01650141  RH  086%=      5-min Rain = 0
KTR1 110619Z 18011KT 17/14 A2979 RMK A01 T01650141  RH  086%=      5-min Rain = 0
KTR1 110620Z 18011KT 17/14 A2979 RMK A01 T01650141  RH  086%=      5-min Rain = 0
KTR1 110621Z 18012KT 17/14 A2979 RMK A01 T01650141  RH  086%=      5-min Rain = 0
KTR1 110622Z 18012KT 16/14 A2979 RMK A01 T01640141  RH  086%=      5-min Rain = 0
KTR1 110623Z 18012KT 16/14 A2979 RMK A01 T01640141  RH  086%=      5-min Rain = 0
KTR1 110624Z 18012KT 16/14 A2979 RMK A01 T01640141  RH  086%=      5-min Rain = 0
KTR1 110625Z 18012KT 16/14 A2979 RMK A01 T01640141  RH  086%=      5-min Rain = 0
KTR1 110626Z 18011KT 16/14 A2979 RMK A01 T01640141  RH  086%=      5-min Rain = 0
KTR1 110627Z 19012KT 16/14 A2979 RMK A01 T01640141  RH  086%=      5-min Rain = 0
KTR1 110628Z 18012KT 16/14 A2979 RMK A01 T01640141  RH  086%=      5-min Rain = 0
KTR1 110629Z 18011KT 16/14 A2979 RMK A01 T01640141  RH  086%=      5-min Rain = 0
KTR1 110630Z 18012KT 16/14 A2979 RMK A01 T01640141  RH  086%=      5-min Rain = 0
KTR1 110631Z 18011KT 16/14 A2979 RMK A01 T01630141  RH  086%=      5-min Rain = 0
KTR1 110632Z 18011KT 16/14 A2979 RMK A01 T01630141  RH  086%=      5-min Rain = 0
KTR1 110633Z 18012KT 16/14 A2979 RMK A01 T01630140  RH  087%=      5-min Rain = 0
KTR1 110634Z 18011KT 16/14 A2979 RMK A01 T01630140  RH  087%=      5-min Rain = 0
KTR1 110635Z 18012KT 16/14 A2979 RMK A01 T01630140  RH  087%=      5-min Rain = 0
KTR1 110636Z 18011KT 16/14 A2979 RMK A01 T01620140  RH  087%=      5-min Rain = 0
KTR1 110637Z 19012KT 16/14 A2979 RMK A01 T01620140  RH  087%=      5-min Rain = 0
KTR1 110638Z 19011KT 16/14 A2979 RMK A01 T01620140  RH  087%=      5-min Rain = 0
KTR1 110639Z 19011KT 16/14 A2979 RMK A01 T01620140  RH  087%=      5-min Rain = 0
KTR1 110640Z 19012KT 16/14 A2979 RMK A01 T01610140  RH  087%=      5-min Rain = 0
KTR1 110641Z 19011KT 16/14 A2979 RMK A01 T01610140  RH  087%=      5-min Rain = 0
KTR1 110642Z 19011KT 16/14 A2979 RMK A01 T01610140  RH  087%=      5-min Rain = 0
KTR1 110643Z 19011KT 16/14 A2979 RMK A01 T01610140  RH  087%=      5-min Rain = 0
KTR1 110644Z 19011KT 16/14 A2979 RMK A01 T01610140  RH  087%=      5-min Rain = 0
KTR1 110645Z 19011KT 16/14 A2979 RMK A01 T01600139  RH  088%=      5-min Rain = 0
KTR1 110646Z 19011KT 16/14 A2979 RMK A01 T01600139  RH  088%=      5-min Rain = 0
KTR1 110647Z 19012KT 16/14 A2979 RMK A01 T01600139  RH  088%=      5-min Rain = 0
KTR1 110648Z 19012KT 16/14 A2979 RMK A01 T01600139  RH  088%=      5-min Rain = 0
KTR1 110649Z 19012KT 16/14 A2979 RMK A01 T01600139  RH  087%=      5-min Rain = 0
KTR1 110650Z 19012KT 16/14 A2979 RMK A01 T01600139  RH  087%=      5-min Rain = 0
KTR1 110651Z 19011KT 16/14 A2979 RMK A01 T01600139  RH  087%=      5-min Rain = 0
KTR1 110652Z 19011KT 16/14 A2979 RMK A01 T01600139  RH  087%=      5-min Rain = 0
KTR1 110653Z 19011KT 16/14 A2979 RMK A01 T01600139  RH  087%=      5-min Rain = 0
KTR1 110654Z 19012KT 16/14 A2979 RMK A01 T01600139  RH  088%=      5-min Rain = 0
KTR1 110655Z 19012KT 16/14 A2979 RMK A01 T01600139  RH  087%=      5-min Rain = 0
KTR1 110656Z 19011KT 16/14 A2979 RMK A01 T01600139  RH  087%=      5-min Rain = 0
KTR1 110657Z 19012KT 16/14 A2979 RMK A01 T01600139  RH  087%=      5-min Rain = 0
KTR1 110658Z 19012KT 16/14 A2979 RMK A01 T01600139  RH  087%=      5-min Rain = 0
KTR1 110659Z 19012KT 16/14 A2979 RMK A01 T01600138  RH  087%=      5-min Rain = 0
KTR1 110700Z 19012KT 16/14 A2979 RMK A01 T01600138  RH  087%=      5-min Rain = 0
KTR1 110701Z 19012KT 16/14 A2979 RMK A01 T01600138  RH  087%=      5-min Rain = 0
KTR1 110702Z 19012KT 16/14 A2979 RMK A01 T01600138  RH  087%=      5-min Rain = 0
KTR1 110703Z 19012KT 16/14 A2979 RMK A01 T01600139  RH  087%=      5-min Rain = 0
KTR1 110704Z 19011KT 16/14 A2979 RMK A01 T01610139  RH  087%=      5-min Rain = 0
KTR1 110705Z 19012KT 16/14 A2979 RMK A01 T01600138  RH  087%=      5-min Rain = 0
KTR1 110706Z 19012KT 16/14 A2979 RMK A01 T01600138  RH  087%=      5-min Rain = 0
KTR1 110707Z 19012KT 16/14 A2979 RMK A01 T01600139  RH  087%=      5-min Rain = 0
KTR1 110708Z 19012KT 16/14 A2978 RMK A01 T01600139  RH  087%=      5-min Rain = 0
KTR1 110709Z 19011KT 16/14 A2978 RMK A01 T01600138  RH  087%=      5-min Rain = 0
KTR1 110710Z 19011KT 16/14 A2978 RMK A01 T01600138  RH  087%=      5-min Rain = 0
KTR1 110711Z 19011KT 16/14 A2978 RMK A01 T01610138  RH  087%=      5-min Rain = 0
KTR1 110712Z 19012KT 16/14 A2978 RMK A01 T01600138  RH  087%=      5-min Rain = 0
KTR1 110713Z 19011KT 16/14 A2978 RMK A01 T01600138  RH  087%=      5-min Rain = 0
KTR1 110714Z 19011KT 16/14 A2978 RMK A01 T01600138  RH  087%=      5-min Rain = 0
KTR1 110715Z 19011KT 16/14 A2978 RMK A01 T01600138  RH  087%=      5-min Rain = 0
KTR1 110716Z 19011KT 16/14 A2978 RMK A01 T01600138  RH  087%=      5-min Rain = 0
KTR1 110717Z 18012KT 16/14 A2978 RMK A01 T01600139  RH  087%=      5-min Rain = 0
KTR1 110718Z 19012KT 16/14 A2978 RMK A01 T01600138  RH  087%=      5-min Rain = 0
KTR1 110719Z 18011KT 16/14 A2978 RMK A01 T01600139  RH  087%=      5-min Rain = 0
KTR1 110720Z 18012KT 16/14 A2978 RMK A01 T01600139  RH  087%=      5-min Rain = 0
KTR1 110721Z 19011KT 16/14 A2978 RMK A01 T01590138  RH  087%=      5-min Rain = 0
KTR1 110722Z 19011KT 16/14 A2978 RMK A01 T01590138  RH  087%=      5-min Rain = 0
KTR1 110723Z 19011KT 16/14 A2978 RMK A01 T01590138  RH  087%=      5-min Rain = 0
KTR1 110724Z 19011KT 16/14 A2978 RMK A01 T01590138  RH  087%=      5-min Rain = 0
KTR1 110725Z 19011KT 16/14 A2978 RMK A01 T01590138  RH  087%=      5-min Rain = 0
KTR1 110726Z 19011KT 16/14 A2978 RMK A01 T01590138  RH  088%=      5-min Rain = 0
KTR1 110727Z 19010KT 16/14 A2979 RMK A01 T01590138  RH  087%=      5-min Rain = 0
KTR1 110728Z 19010KT 16/14 A2978 RMK A01 T01590138  RH  087%=      5-min Rain = 0
KTR1 110729Z 19010KT 16/14 A2979 RMK A01 T01590138  RH  088%=      5-min Rain = 0
KTR1 110730Z 19009KT 16/14 A2979 RMK A01 T01580138  RH  088%=      5-min Rain = 0
KTR1 110731Z 20009KT 16/14 A2979 RMK A01 T01580138  RH  088%=      5-min Rain = 0
KTR1 110732Z 19009KT 16/14 A2979 RMK A01 T01580138  RH  088%=      5-min Rain = 0
KTR1 110733Z 19010KT 16/14 A2979 RMK A01 T01580138  RH  088%=      5-min Rain = 0
KTR1 110734Z 20010KT 16/14 A2979 RMK A01 T01580138  RH  088%=      5-min Rain = 0
KTR1 110735Z 20010KT 16/14 A2979 RMK A01 T01580138  RH  088%=      5-min Rain = 0
KTR1 110736Z 20010KT 16/14 A2979 RMK A01 T01580138  RH  088%=      5-min Rain = 0
KTR1 110737Z 20011KT 16/14 A2979 RMK A01 T01590139  RH  087%=      5-min Rain = 0
KTR1 110738Z 20011KT 16/14 A2979 RMK A01 T01600139  RH  087%=      5-min Rain = 0
KTR1 110739Z 20011KT 16/14 A2979 RMK A01 T01610139  RH  087%=      5-min Rain = 0
KTR1 110740Z 20011KT 16/14 A2979 RMK A01 T01610139  RH  087%=      5-min Rain = 0
KTR1 110741Z 20011KT 16/14 A2979 RMK A01 T01610139  RH  086%=      5-min Rain = 0
KTR1 110742Z 20011KT 16/14 A2979 RMK A01 T01610139  RH  086%=      5-min Rain = 0
KTR1 110743Z 20010KT 16/14 A2979 RMK A01 T01610139  RH  086%=      5-min Rain = 0
KTR1 110744Z 20010KT 16/14 A2979 RMK A01 T01620139  RH  086%=      5-min Rain = 0
KTR1 110745Z 20010KT 16/14 A2979 RMK A01 T01620139  RH  087%=      5-min Rain = 0
KTR1 110746Z 20010KT 16/14 A2979 RMK A01 T01610139  RH  087%=      5-min Rain = 0
KTR1 110747Z 20010KT 16/14 A2979 RMK A01 T01620139  RH  087%=      5-min Rain = 0
KTR1 110748Z 20010KT 16/14 A2979 RMK A01 T01610139  RH  086%=      5-min Rain = 0
KTR1 110749Z 20010KT 16/14 A2979 RMK A01 T01610139  RH  087%=      5-min Rain = 0
KTR1 110750Z 20010KT 16/14 A2979 RMK A01 T01610139  RH  087%=      5-min Rain = 0
KTR1 110751Z 20010KT 16/14 A2979 RMK A01 T01610139  RH  087%=      5-min Rain = 0
KTR1 110752Z 20010KT 16/14 A2979 RMK A01 T01610139  RH  087%=      5-min Rain = 0
KTR1 110753Z 20010KT 16/14 A2979 RMK A01 T01610139  RH  087%=      5-min Rain = 0
KTR1 110754Z 20010KT 16/14 A2979 RMK A01 T01610139  RH  087%=      5-min Rain = 0
KTR1 110755Z 20010KT 16/14 A2979 RMK A01 T01610139  RH  087%=      5-min Rain = 0
KTR1 110756Z 20010KT 16/14 A2979 RMK A01 T01600139  RH  087%=      5-min Rain = 0
KTR1 110757Z 20010KT 16/14 A2979 RMK A01 T01600139  RH  087%=      5-min Rain = 0
KTR1 110758Z 20011KT 16/14 A2979 RMK A01 T01600139  RH  087%=      5-min Rain = 0
KTR1 110759Z 20011KT 16/14 A2979 RMK A01 T01610139  RH  087%=      5-min Rain = 0
KTR1 110800Z 20011KT 16/14 A2979 RMK A01 T01610139  RH  087%=      5-min Rain = 0
KTR1 110801Z 21011KT 16/14 A2979 RMK A01 T01620139  RH  087%=      5-min Rain = 0
KTR1 110802Z 21011KT 16/14 A2979 RMK A01 T01620139  RH  086%=      5-min Rain = 0
KTR1 110803Z 20012KT 16/14 A2979 RMK A01 T01620139  RH  086%=      5-min Rain = 0
KTR1 110804Z 21011KT 16/14 A2979 RMK A01 T01630139  RH  086%=      5-min Rain = 0
KTR1 110805Z 21012KT 16/14 A2979 RMK A01 T01640140  RH  086%=      5-min Rain = 0
KTR1 110806Z 21012KT 16/14 A2979 RMK A01 T01630140  RH  086%=      5-min Rain = 0
KTR1 110807Z 21012KT 16/14 A2979 RMK A01 T01630140  RH  086%=      5-min Rain = 0
KTR1 110808Z 21012KT 16/14 A2979 RMK A01 T01640140  RH  086%=      5-min Rain = 0
KTR1 110809Z 21013KT 16/14 A2979 RMK A01 T01640140  RH  086%=      5-min Rain = 0
KTR1 110810Z 21012KT 16/14 A2979 RMK A01 T01640140  RH  086%=      5-min Rain = 0
KTR1 110811Z 21012KT 16/14 A2979 RMK A01 T01640140  RH  086%=      5-min Rain = 0
KTR1 110812Z 21011KT 16/14 A2979 RMK A01 T01640140  RH  086%=      5-min Rain = 0
KTR1 110813Z 20012KT 16/14 A2979 RMK A01 T01640140  RH  086%=      5-min Rain = 0
KTR1 110814Z 20012KT 16/14 A2979 RMK A01 T01640140  RH  086%=      5-min Rain = 0
KTR1 110815Z 21011KT 16/14 A2979 RMK A01 T01640140  RH  086%=      5-min Rain = 0
KTR1 110816Z 21011KT 16/14 A2979 RMK A01 T01640140  RH  086%=      5-min Rain = 0
KTR1 110817Z 20011KT 16/14 A2979 RMK A01 T01640140  RH  086%=      5-min Rain = 0
KTR1 110818Z 20012KT 16/14 A2979 RMK A01 T01630140  RH  086%=      5-min Rain = 0
KTR1 110819Z 20011KT 16/14 A2979 RMK A01 T01640140  RH  086%=      5-min Rain = 0
KTR1 110820Z 21011KT 16/14 A2979 RMK A01 T01630140  RH  086%=      5-min Rain = 0
KTR1 110821Z 20011KT 16/14 A2979 RMK A01 T01630140  RH  086%=      5-min Rain = 0
KTR1 110822Z 21011KT 16/14 A2979 RMK A01 T01630140  RH  086%=      5-min Rain = 0
KTR1 110823Z 21011KT 16/14 A2979 RMK A01 T01630140  RH  086%=      5-min Rain = 0
KTR1 110824Z 20011KT 16/14 A2979 RMK A01 T01630140  RH  086%=      5-min Rain = 0
KTR1 110825Z 20011KT 16/14 A2979 RMK A01 T01620140  RH  086%=      5-min Rain = 0
KTR1 110826Z 20011KT 16/14 A2979 RMK A01 T01620140  RH  086%=      5-min Rain = 0
KTR1 110827Z 20010KT 16/14 A2979 RMK A01 T01620140  RH  086%=      5-min Rain = 0
KTR1 110828Z 21011KT 16/14 A2979 RMK A01 T01620140  RH  086%=      5-min Rain = 0
KTR1 110829Z 21011KT 16/14 A2979 RMK A01 T01630140  RH  086%=      5-min Rain = 0
KTR1 110830Z 21011KT 16/14 A2979 RMK A01 T01620140  RH  086%=      5-min Rain = 0
KTR1 110831Z 21011KT 16/14 A2979 RMK A01 T01620139  RH  086%=      5-min Rain = 0
KTR1 110832Z 21010KT 16/14 A2979 RMK A01 T01630140  RH  086%=      5-min Rain = 0
KTR1 110833Z 21011KT 16/14 A2979 RMK A01 T01620139  RH  086%=      5-min Rain = 0
KTR1 110834Z 20011KT 16/14 A2979 RMK A01 T01630140  RH  086%=      5-min Rain = 0
KTR1 110835Z 21011KT 16/14 A2979 RMK A01 T01630139  RH  086%=      5-min Rain = 0
KTR1 110836Z 21010KT 16/14 A2979 RMK A01 T01630139  RH  086%=      5-min Rain = 0
KTR1 110837Z 21009KT 16/14 A2979 RMK A01 T01630140  RH  086%=      5-min Rain = 0
KTR1 110838Z 21010KT 16/14 A2979 RMK A01 T01620139  RH  086%=      5-min Rain = 0
KTR1 110839Z 21010KT 16/14 A2979 RMK A01 T01620139  RH  086%=      5-min Rain = 0
KTR1 110840Z 21009KT 16/14 A2979 RMK A01 T01620139  RH  086%=      5-min Rain = 0
KTR1 110841Z 21009KT 16/14 A2979 RMK A01 T01620139  RH  086%=      5-min Rain = 0
KTR1 110842Z 21009KT 16/14 A2979 RMK A01 T01620140  RH  086%=      5-min Rain = 0
KTR1 110843Z 22008KT 16/14 A2979 RMK A01 T01620140  RH  087%=      5-min Rain = 0
KTR1 110844Z 22008KT 16/14 A2979 RMK A01 T01620139  RH  087%=      5-min Rain = 0
KTR1 110845Z 22008KT 16/14 A2979 RMK A01 T01620139  RH  087%=      5-min Rain = 0
KTR1 110846Z 22008KT 16/14 A298 RMK A01 T01610139  RH  087%=      5-min Rain = 0
KTR1 110847Z 22009KT 16/14 A298 RMK A01 T01610139  RH  087%=      5-min Rain = 0
KTR1 110848Z 22009KT 16/14 A298 RMK A01 T01610139  RH  087%=      5-min Rain = 0
KTR1 110849Z 22009KT 16/14 A298 RMK A01 T01610139  RH  087%=      5-min Rain = 0
KTR1 110850Z 22009KT 16/14 A298 RMK A01 T01610139  RH  087%=      5-min Rain = 0
KTR1 110851Z 22010KT 16/14 A298 RMK A01 T01610139  RH  087%=      5-min Rain = 0
KTR1 110852Z 22010KT 16/14 A298 RMK A01 T01610139  RH  087%=      5-min Rain = 0
KTR1 110853Z 22010KT 16/14 A298 RMK A01 T01620140  RH  087%=      5-min Rain = 0
KTR1 110854Z 22010KT 16/14 A298 RMK A01 T01620140  RH  087%=      5-min Rain = 0
KTR1 110855Z 22011KT 16/14 A298 RMK A01 T01620140  RH  087%=      5-min Rain = 0
KTR1 110856Z 22011KT 16/14 A298 RMK A01 T01630140  RH  086%=      5-min Rain = 0
KTR1 110857Z 22010KT 16/14 A298 RMK A01 T01640140  RH  086%=      5-min Rain = 0
KTR1 110858Z 22009KT 17/14 A298 RMK A01 T01650140  RH  085%=      5-min Rain = 0
KTR1 110859Z 23009KT 17/14 A298 RMK A01 T01650140  RH  085%=      5-min Rain = 0
KTR1 110900Z 23008KT 17/14 A298 RMK A01 T01650140  RH  085%=      5-min Rain = 0
KTR1 110901Z 24008KT 17/14 A298 RMK A01 T01660140  RH  085%=      5-min Rain = 0
KTR1 110902Z 24008KT 17/14 A298 RMK A01 T01660140  RH  085%=      5-min Rain = 0
KTR1 110903Z 24008KT 17/14 A298 RMK A01 T01670140  RH  084%=      5-min Rain = 0
KTR1 110904Z 23008KT 17/14 A298 RMK A01 T01670140  RH  084%=      5-min Rain = 0
KTR1 110905Z 24007KT 17/14 A298 RMK A01 T01670140  RH  084%=      5-min Rain = 0
KTR1 110906Z 23008KT 17/14 A298 RMK A01 T01670141  RH  084%=      5-min Rain = 0
KTR1 110907Z 23008KT 17/14 A2981 RMK A01 T01660140  RH  085%=      5-min Rain = 0
KTR1 110908Z 23007KT 17/14 A2981 RMK A01 T01670140  RH  084%=      5-min Rain = 0
KTR1 110909Z 23007KT 17/14 A2981 RMK A01 T01670141  RH  084%=      5-min Rain = 0
KTR1 110910Z 23007KT 17/14 A2981 RMK A01 T01670140  RH  084%=      5-min Rain = 0
KTR1 110911Z 24007KT 17/14 A2981 RMK A01 T01670140  RH  084%=      5-min Rain = 0
KTR1 110912Z 24007KT 17/14 A2981 RMK A01 T01670141  RH  084%=      5-min Rain = 0
KTR1 110913Z 25007KT 17/14 A2981 RMK A01 T01660140  RH  085%=      5-min Rain = 0
KTR1 110914Z 25007KT 17/14 A2981 RMK A01 T01660140  RH  085%=      5-min Rain = 0
KTR1 110915Z 26006KT 17/14 A2981 RMK A01 T01650140  RH  085%=      5-min Rain = 0
KTR1 110916Z 27005KT 17/14 A2981 RMK A01 T01650140  RH  085%=      5-min Rain = 0
KTR1 110917Z 27006KT 16/14 A2981 RMK A01 T01640140  RH  085%=      5-min Rain = 0
KTR1 110918Z 28006KT 16/14 A2982 RMK A01 T01630139  RH  086%=      5-min Rain = 0
KTR1 110919Z 28005KT 16/14 A2982 RMK A01 T01620139  RH  086%=      5-min Rain = 0
KTR1 110920Z 28006KT 16/14 A2982 RMK A01 T01610139  RH  087%=      5-min Rain = 0
KTR1 110921Z 27006KT 16/14 A2982 RMK A01 T01600139  RH  087%=      5-min Rain = 0
KTR1 110922Z 26006KT 16/14 A2982 RMK A01 T01600139  RH  087%=      5-min Rain = 0
KTR1 110923Z 26006KT 16/14 A2982 RMK A01 T01590139  RH  088%=      5-min Rain = 0
KTR1 110924Z 26007KT 16/14 A2982 RMK A01 T01590139  RH  088%=      5-min Rain = 0
KTR1 110925Z 27006KT 16/14 A2982 RMK A01 T01590139  RH  088%=      5-min Rain = 0
KTR1 110926Z 27006KT 16/14 A2982 RMK A01 T01590139  RH  088%=      5-min Rain = 0
KTR1 110927Z 28007KT 16/14 A2982 RMK A01 T01590139  RH  088%=      5-min Rain = 0
KTR1 110928Z 28006KT 16/14 A2982 RMK A01 T01590139  RH  088%=      5-min Rain = 0
KTR1 110929Z 28007KT 16/14 A2982 RMK A01 T01590139  RH  088%=      5-min Rain = 0
KTR1 110930Z 27007KT 16/14 A2982 RMK A01 T01580138  RH  088%=      5-min Rain = 0
KTR1 110931Z 27008KT 16/14 A2982 RMK A01 T01580138  RH  088%=      5-min Rain = 0
KTR1 110932Z 28008KT 16/14 A2982 RMK A01 T01570138  RH  088%=      5-min Rain = 0
KTR1 110933Z 28008KT 16/14 A2982 RMK A01 T01570138  RH  088%=      5-min Rain = 0
KTR1 110934Z 28008KT 16/14 A2983 RMK A01 T01580139  RH  088%=      5-min Rain = 0
KTR1 110935Z 29008KT 16/14 A2983 RMK A01 T01580139  RH  088%=      5-min Rain = 0
KTR1 110936Z 29008KT 16/14 A2983 RMK A01 T01570139  RH  089%=      5-min Rain = 0
KTR1 110937Z 29009KT 16/14 A2983 RMK A01 T01560138  RH  089%=      5-min Rain = 0
KTR1 110938Z 29012KT 16/14 A2983 RMK A01 T01570136  RH  087%=      5-min Rain = 0
KTR1 110939Z 29013KT 16/13 A2983 RMK A01 T01590133  RH  084%=      5-min Rain = 0
KTR1 110940Z 30012KT 16/13 A2983 RMK A01 T01610130  RH  082%=      5-min Rain = 0
KTR1 110941Z 29012KT 16/13 A2983 RMK A01 T01620131  RH  082%=      5-min Rain = 0
KTR1 110942Z 29014KT 16/13 A2983 RMK A01 T01620129  RH  081%=      5-min Rain = 0
KTR1 110943Z 30014KT 16/13 A2983 RMK A01 T01620126  RH  079%=      5-min Rain = 0
KTR1 110944Z 30013KT 16/12 A2983 RMK A01 T01620123  RH  078%=      5-min Rain = 0
KTR1 110945Z 30013KT 16/12 A2983 RMK A01 T01610121  RH  077%=      5-min Rain = 0
KTR1 110946Z 30013KT 16/12 A2983 RMK A01 T01610120  RH  077%=      5-min Rain = 0
KTR1 110947Z 30016KT 16/12 A2983 RMK A01 T01590118  RH  076%=      5-min Rain = 0
KTR1 110948Z 30016KT 16/11 A2983 RMK A01 T01580110  RH  073%=      5-min Rain = 0
KTR1 110949Z 30014KT 16/11 A2983 RMK A01 T01570109  RH  073%=      5-min Rain = 0
KTR1 110950Z 30015KT 16/11 A2983 RMK A01 T01550108  RH  074%=      5-min Rain = 0
KTR1 110951Z 30014KT 15/11 A2983 RMK A01 T01540107  RH  074%=      5-min Rain = 0
KTR1 110952Z 30014KT 15/11 A2983 RMK A01 T01530107  RH  074%=      5-min Rain = 0
KTR1 110953Z 31012KT 15/11 A2984 RMK A01 T01520107  RH  074%=      5-min Rain = 0
KTR1 110954Z 31011G18KT 15/11 A2984 RMK A01 T01510108  RH  075%=      5-min Rain = 0
KTR1 110955Z 31014KT 15/11 A2984 RMK A01 T01500106  RH  075%=      5-min Rain = 0
KTR1 110956Z 31012KT 15/11 A2984 RMK A01 T01500106  RH  075%=      5-min Rain = 0
KTR1 110957Z 31013KT 15/11 A2984 RMK A01 T01500105  RH  075%=      5-min Rain = 0
KTR1 110958Z 31015KT 15/10 A2984 RMK A01 T01490103  RH  074%=      5-min Rain = 0
KTR1 110959Z 31012KT 15/10 A2984 RMK A01 T01480103  RH  074%=      5-min Rain = 0
KTR1 111000Z 31011KT 15/10 A2984 RMK A01 T01480104  RH  075%=      5-min Rain = 0
KTR1 111001Z 31010KT 15/10 A2985 RMK A01 T01460104  RH  076%=      5-min Rain = 0
KTR1 111002Z 32014KT 15/10 A2985 RMK A01 T01450102  RH  075%=      5-min Rain = 0
KTR1 111003Z 32013KT 15/10 A2985 RMK A01 T01450103  RH  075%=      5-min Rain = 0
KTR1 111004Z 32012KT 15/10 A2985 RMK A01 T01450103  RH  076%=      5-min Rain = 0
KTR1 111005Z 32015KT 14/10 A2985 RMK A01 T01440103  RH  076%=      5-min Rain = 0
KTR1 111006Z 32012KT 14/10 A2985 RMK A01 T01440104  RH  077%=      5-min Rain = 0
KTR1 111007Z 31010G15KT 14/11 A2986 RMK A01 T01430105  RH  078%=      5-min Rain = 0
KTR1 111008Z 31012KT 14/11 A2986 RMK A01 T01430106  RH  078%=      5-min Rain = 0
KTR1 111009Z 31014KT 14/11 A2986 RMK A01 T01430106  RH  078%=      5-min Rain = 0
KTR1 111010Z 32013KT 14/11 A2986 RMK A01 T01420106  RH  079%=      5-min Rain = 0
KTR1 111011Z 31012KT 14/11 A2986 RMK A01 T01420106  RH  079%=      5-min Rain = 0
KTR1 111012Z 31014KT 14/11 A2986 RMK A01 T01420106  RH  079%=      5-min Rain = 0
KTR1 111013Z 31013KT 14/11 A2986 RMK A01 T01410106  RH  079%=      5-min Rain = 0
KTR1 111014Z 31013KT 14/11 A2986 RMK A01 T01420107  RH  079%=      5-min Rain = 0
KTR1 111015Z 31014KT 14/11 A2986 RMK A01 T01410107  RH  080%=      5-min Rain = 0
KTR1 111016Z 31017KT 14/11 A2986 RMK A01 T01410107  RH  080%=      5-min Rain = 0
KTR1 111017Z 31013G18KT 14/11 A2986 RMK A01 T01410108  RH  080%=      5-min Rain = 0
KTR1 111018Z 32014KT 14/11 A2987 RMK A01 T01400108  RH  081%=      5-min Rain = 0
KTR1 111019Z 32012KT 14/11 A2987 RMK A01 T01400108  RH  081%=      5-min Rain = 0
KTR1 111020Z 32013KT 14/11 A2987 RMK A01 T01400108  RH  081%=      5-min Rain = 0
KTR1 111021Z 32012KT 14/11 A2987 RMK A01 T01400108  RH  081%=      5-min Rain = 0
KTR1 111022Z 32012G17KT 14/11 A2987 RMK A01 T01390109  RH  082%=      5-min Rain = 0
KTR1 111023Z 32015KT 14/11 A2987 RMK A01 T01390109  RH  082%=      5-min Rain = 0
KTR1 111024Z 32014G20KT 14/11 A2987 RMK A01 T01390109  RH  082%=      5-min Rain = 0
KTR1 111025Z 32017KT 14/11 A2987 RMK A01 T01390110  RH  083%=      5-min Rain = 0
KTR1 111026Z 31018KT 14/11 A2987 RMK A01 T01390110  RH  083%=      5-min Rain = 0
KTR1 111027Z 32014KT 14/11 A2987 RMK A01 T01390111  RH  083%=      5-min Rain = 0
KTR1 111028Z 32014KT 14/11 A2987 RMK A01 T01390111  RH  084%=      5-min Rain = 0
KTR1 111029Z 32013KT 14/11 A2987 RMK A01 T01390112  RH  084%=      5-min Rain = 0
KTR1 111030Z 32015KT 14/11 A2988 RMK A01 T01390112  RH  084%=      5-min Rain = 0
KTR1 111031Z 32015KT 14/11 A2988 RMK A01 T01380112  RH  084%=      5-min Rain = 0
KTR1 111032Z 32014KT 14/11 A2987 RMK A01 T01380112  RH  084%=      5-min Rain = 0
KTR1 111033Z 32015KT 14/11 A2987 RMK A01 T01380112  RH  084%=      5-min Rain = 0
KTR1 111034Z 32012KT 14/11 A2988 RMK A01 T01380113  RH  085%=      5-min Rain = 0
KTR1 111035Z 32013G19KT 14/11 A2988 RMK A01 T01390114  RH  085%=      5-min Rain = 0
KTR1 111036Z 32014KT 14/11 A2988 RMK A01 T01380114  RH  085%=      5-min Rain = 0
KTR1 111037Z 32015G20KT 14/11 A2988 RMK A01 T01380114  RH  085%=      5-min Rain = 0
KTR1 111038Z 32016KT 14/11 A2988 RMK A01 T01380114  RH  085%=      5-min Rain = 0
KTR1 111039Z 32017KT 14/11 A2988 RMK A01 T01390114  RH  085%=      5-min Rain = 0
KTR1 111040Z 32014G19KT 14/12 A2988 RMK A01 T01390115  RH  085%=      5-min Rain = 0
KTR1 111041Z 32012KT 14/12 A2988 RMK A01 T01390115  RH  085%=      5-min Rain = 0
KTR1 111042Z 33015KT 14/12 A2989 RMK A01 T01390116  RH  086%=      5-min Rain = 0
KTR1 111043Z 33014KT 14/12 A2989 RMK A01 T01390116  RH  086%=      5-min Rain = 0
KTR1 111044Z 32016KT 14/12 A2989 RMK A01 T01390116  RH  086%=      5-min Rain = 0
KTR1 111045Z 32014KT 14/12 A2989 RMK A01 T01390116  RH  086%=      5-min Rain = 0
KTR1 111046Z 32012KT 14/12 A2989 RMK A01 T01390116  RH  086%=      5-min Rain = 0
KTR1 111047Z 33014KT 14/12 A2989 RMK A01 T01390116  RH  086%=      5-min Rain = 0
KTR1 111048Z 32013KT 14/12 A2989 RMK A01 T01390116  RH  086%=      5-min Rain = 0
KTR1 111049Z 32015G20KT 14/12 A2989 RMK A01 T01390116  RH  086%=      5-min Rain = 0
KTR1 111050Z 33015KT 14/12 A2989 RMK A01 T01400117  RH  086%=      5-min Rain = 0
KTR1 111051Z 33014KT 14/12 A2989 RMK A01 T01400117  RH  086%=      5-min Rain = 0
KTR1 111052Z 33016G21KT 14/12 A2989 RMK A01 T01400117  RH  086%=      5-min Rain = 0
KTR1 111053Z 33014KT 14/12 A2989 RMK A01 T01400118  RH  086%=      5-min Rain = 0
KTR1 111054Z 33017G23KT 14/12 A2989 RMK A01 T01400118  RH  086%=      5-min Rain = 0
KTR1 111055Z 33018KT 14/12 A2989 RMK A01 T01410118  RH  086%=      5-min Rain = 0
KTR1 111056Z 33013G18KT 14/12 A2989 RMK A01 T01410119  RH  086%=      5-min Rain = 0
KTR1 111057Z 33018G23KT 14/12 A2989 RMK A01 T01420119  RH  087%=      5-min Rain = 0
KTR1 111058Z 33019G25KT 14/12 A2989 RMK A01 T01420120  RH  087%=      5-min Rain = 0
KTR1 111059Z 33021KT 14/12 A2989 RMK A01 T01420120  RH  087%=      5-min Rain = 0
KTR1 111100Z 33020KT 14/12 A2989 RMK A01 T01430121  RH  087%=      5-min Rain = 0
KTR1 111101Z 34018G23KT 14/12 A299 RMK A01 T01430122  RH  087%=      5-min Rain = 0
KTR1 111102Z 34017G22KT 14/12 A299 RMK A01 T01430122  RH  087%=      5-min Rain = 0
KTR1 111103Z 34019G26KT 14/12 A299 RMK A01 T01430122  RH  087%=      5-min Rain = 0
KTR1 111104Z 34020KT 14/12 A299 RMK A01 T01440123  RH  087%=      5-min Rain = 0
KTR1 111105Z 34017G22KT 14/12 A299 RMK A01 T01440124  RH  088%=      5-min Rain = 0
KTR1 111106Z 34018G23KT 14/12 A2991 RMK A01 T01440124  RH  088%=      5-min Rain = 0
KTR1 111107Z 34019G27KT 15/12 A2991 RMK A01 T01450124  RH  088%=      5-min Rain = 0
KTR1 111108Z 35025G32KT 14/12 A2991 RMK A01 T01440124  RH  088%=      5-min Rain = 0
KTR1 111109Z 34023KT 14/12 A2991 RMK A01 T01440124  RH  088%=      5-min Rain = 0
KTR1 111110Z 35023KT 14/13 A2991 RMK A01 T01440125  RH  088%=      5-min Rain = 0
KTR1 111111Z 35019KT 14/13 A2992 RMK A01 T01440125  RH  088%=      5-min Rain = 0
KTR1 111112Z 34017G30KT 14/13 A2992 RMK A01 T01440126  RH  089%=      5-min Rain = 0
KTR1 111113Z 34021G28KT 14/12 A2992 RMK A01 T01430124  RH  088%=      5-min Rain = 0
KTR1 111114Z 34022G27KT 14/12 A2993 RMK A01 T01400120  RH  088%=      5-min Rain = 0
KTR1 111115Z 35021G26KT 14/12 A2993 RMK A01 T01360117  RH  088%=      5-min Rain = 0
KTR1 111116Z 35024G30KT 13/11 A2993 RMK A01 T01310111  RH  087%=      5-min Rain = 0
KTR1 111117Z 34021KT 13/11 A2994 RMK A01 T01270107  RH  088%=      5-min Rain = 0
KTR1 111118Z 35022G27KT 12/11 A2994 RMK A01 T01240106  RH  089%=      5-min Rain = 0
KTR1 111119Z 34022G27KT 12/11 A2994 RMK A01 T01220105  RH  090%=      5-min Rain = 0
KTR1 111120Z 34019G26KT 12/10 A2994 RMK A01 T01200104  RH  090%=      5-min Rain = 0
KTR1 111121Z 34022G28KT 12/10 A2995 RMK A01 T01180102  RH  090%=      5-min Rain = 0
KTR1 111122Z 34029G36KT 12/10 A2995 RMK A01 T01160097  RH  088%=      5-min Rain = 0
KTR1 111123Z 35023G28KT 11/09 A2995 RMK A01 T01140093  RH  087%=      5-min Rain = 0
KTR1 111124Z 00024G30KT 11/09 A2995 RMK A01 T01120092  RH  087%=      5-min Rain = 0
KTR1 111125Z 35025G31KT 11/09 A2996 RMK A01 T01110091  RH  087%=      5-min Rain = 0
KTR1 111126Z 35023G30KT 11/09 A2996 RMK A01 T01110090  RH  087%=      5-min Rain = 0
KTR1 111127Z 34023G31KT 11/09 A2996 RMK A01 T01090088  RH  087%=      5-min Rain = 0
KTR1 111128Z 35023G33KT 11/09 A2996 RMK A01 T01080086  RH  086%=      5-min Rain = 0
KTR1 111129Z 34028G34KT 11/08 A2997 RMK A01 T01060082  RH  085%=      5-min Rain = 0
KTR1 111130Z 35023G33KT 11/08 A2997 RMK A01 T01050078  RH  084%=      5-min Rain = 0
KTR1 111131Z 35024G31KT 10/08 A2997 RMK A01 T01030076  RH  083%=      5-min Rain = 0
KTR1 111132Z 35021G28KT 10/08 A2997 RMK A01 T01020075  RH  083%=      5-min Rain = 0
KTR1 111133Z 35023G30KT 10/08 A2998 RMK A01 T01020076  RH  084%=      5-min Rain = 0
KTR1 111134Z 36028G38KT 10/08 A2998 RMK A01 T01010075  RH  084%=      5-min Rain = 0
KTR1 111135Z 35027G33KT 10/07 A2998 RMK A01 T01010074  RH  084%=      5-min Rain = 0
KTR1 111136Z 35029G35KT 10/07 A2998 RMK A01 T01000072  RH  083%=      5-min Rain = 0
KTR1 111137Z 36026G31KT 10/07 A2999 RMK A01 T00990072  RH  083%=      5-min Rain = 0
KTR1 111138Z 35020G27KT 10/07 A2999 RMK A01 T00990071  RH  083%=      5-min Rain = 0
KTR1 111139Z 35019G25KT 10/07 A2999 RMK A01 T00990072  RH  083%=      5-min Rain = 0
KTR1 111140Z 34022G27KT 10/07 A2999 RMK A01 T00980072  RH  084%=      5-min Rain = 0
KTR1 111141Z 34019G25KT 10/07 A2999 RMK A01 T00960070  RH  084%=      5-min Rain = 0
KTR1 111142Z 34025G34KT 09/07 A2999 RMK A01 T00940068  RH  084%=      5-min Rain = 0
KTR1 111143Z 34024G34KT 09/07 A30 RMK A01 T00920065  RH  083%=      5-min Rain = 0
KTR1 111144Z 34022G30KT 09/06 A30 RMK A01 T00900063  RH  083%=      5-min Rain = 0
KTR1 111145Z 34026G32KT 09/06 A30 RMK A01 T00880060  RH  083%=      5-min Rain = 0
KTR1 111146Z 34030G37KT 09/06 A30 RMK A01 T00860057  RH  082%=      5-min Rain = 0
KTR1 111147Z 34028KT 08/06 A30 RMK A01 T00840056  RH  082%=      5-min Rain = 0
KTR1 111148Z 35026G35KT 08/06 A3001 RMK A01 T00830055  RH  082%=      5-min Rain = 0
KTR1 111149Z 35025G31KT 08/06 A3001 RMK A01 T00830055  RH  083%=      5-min Rain = 0
KTR1 111150Z 35026G31KT 08/06 A3001 RMK A01 T00830055  RH  083%=      5-min Rain = 0
KTR1 111151Z 34028G38KT 08/05 A3002 RMK A01 T00820053  RH  082%=      5-min Rain = 0
KTR1 111152Z 34027G37KT 08/05 A3002 RMK A01 T00810051  RH  081%=      5-min Rain = 0
KTR1 111153Z 35026G33KT 08/05 A3002 RMK A01 T00800052  RH  082%=      5-min Rain = 0
KTR1 111154Z 35024G32KT 08/05 A3002 RMK A01 T00800051  RH  082%=      5-min Rain = 0
KTR1 111155Z 35027G32KT 08/05 A3002 RMK A01 T00790050  RH  082%=      5-min Rain = 0
KTR1 111156Z 35029G37KT 08/05 A3003 RMK A01 T00780048  RH  081%=      5-min Rain = 0
KTR1 111157Z 35024G30KT 08/05 A3003 RMK A01 T00780048  RH  081%=      5-min Rain = 0
KTR1 111158Z 00026G32KT 08/05 A3003 RMK A01 T00780049  RH  082%=      5-min Rain = 0
KTR1 111159Z 36023KT 08/05 A3003 RMK A01 T00780048  RH  082%=      5-min Rain = 0
KTR1 111200Z 35023G30KT 08/05 A3003 RMK A01 T00780049  RH  082%=      5-min Rain = 0
KTR1 111201Z 35024G31KT 08/05 A3003 RMK A01 T00770049  RH  082%=      5-min Rain = 0
KTR1 111202Z 35022G31KT 08/05 A3004 RMK A01 T00770050  RH  083%=      5-min Rain = 0
KTR1 111203Z 36023G30KT 08/05 A3004 RMK A01 T00760051  RH  084%=      5-min Rain = 0
KTR1 111204Z 36025G31KT 08/05 A3004 RMK A01 T00760051  RH  084%=      5-min Rain = 0
KTR1 111205Z 36023G29KT 08/05 A3004 RMK A01 T00760051  RH  084%=      5-min Rain = 0
KTR1 111206Z 35023KT 08/05 A3005 RMK A01 T00750051  RH  085%=      5-min Rain = 0
KTR1 111207Z 35024G32KT 08/05 A3005 RMK A01 T00750051  RH  085%=      5-min Rain = 0
KTR1 111208Z 35032G40KT 07/05 A3005 RMK A01 T00740047  RH  083%=      5-min Rain = 0
KTR1 111209Z 34028G36KT 07/04 A3005 RMK A01 T00730043  RH  081%=      5-min Rain = 0
KTR1 111210Z 35026G34KT 07/04 A3005 RMK A01 T00720042  RH  081%=      5-min Rain = 0
KTR1 111211Z 00025G34KT 07/04 A3006 RMK A01 T00710041  RH  082%=      5-min Rain = 0
KTR1 111212Z 36025G33KT 07/04 A3006 RMK A01 T00710042  RH  082%=      5-min Rain = 0
KTR1 111213Z 00024KT 07/04 A3006 RMK A01 T00700041  RH  082%=      5-min Rain = 0
KTR1 111214Z 00022G29KT 07/04 A3006 RMK A01 T00690041  RH  082%=      5-min Rain = 0
KTR1 111215Z 00022G27KT 07/04 A3006 RMK A01 T00690041  RH  083%=      5-min Rain = 0
KTR1 111216Z 36027KT 07/04 A3006 RMK A01 T00690042  RH  083%=      5-min Rain = 0
KTR1 111217Z 00026KT 07/04 A3006 RMK A01 T00680042  RH  083%=      5-min Rain = 0
KTR1 111218Z 00024G32KT 07/04 A3006 RMK A01 T00680044  RH  084%=      5-min Rain = 0
KTR1 111219Z 36022G27KT 07/05 A3007 RMK A01 T00680045  RH  085%=      5-min Rain = 0
KTR1 111220Z 35022G27KT 07/05 A3007 RMK A01 T00670046  RH  086%=      5-min Rain = 0
KTR1 111221Z 36020G27KT 07/05 A3007 RMK A01 T00660046  RH  087%=      5-min Rain = 0
KTR1 111222Z 35022G27KT 07/05 A3007 RMK A01 T00660048  RH  088%=      5-min Rain = 0
KTR1 111223Z 35020G26KT 07/05 A3007 RMK A01 T00650048  RH  089%=      5-min Rain = 0
KTR1 111224Z 35030G39KT 07/05 A3007 RMK A01 T00650048  RH  089%=      5-min Rain = 0
KTR1 111225Z 35030G37KT 06/04 A3007 RMK A01 T00630041  RH  086%=      5-min Rain = 0
KTR1 111226Z 35027G36KT 06/04 A3008 RMK A01 T00620039  RH  085%=      5-min Rain = 0
KTR1 111227Z 36025G30KT 06/04 A3008 RMK A01 T00610039  RH  086%=      5-min Rain = 0
KTR1 111228Z 34024G31KT 06/04 A3008 RMK A01 T00610040  RH  087%=      5-min Rain = 0
KTR1 111229Z 35030G36KT 06/04 A3008 RMK A01 T00600039  RH  086%=      5-min Rain = 0
KTR1 111230Z 36027G32KT 06/04 A3008 RMK A01 T00590036  RH  085%=      5-min Rain = 0
KTR1 111231Z 35027G34KT 06/04 A3008 RMK A01 T00580036  RH  085%=      5-min Rain = 0
KTR1 111232Z 36027KT 06/04 A3008 RMK A01 T00580035  RH  085%=      5-min Rain = 0
KTR1 111233Z 36025KT 06/03 A3008 RMK A01 T00580034  RH  085%=      5-min Rain = 0
KTR1 111234Z 35022G28KT 06/03 A3009 RMK A01 T00570033  RH  085%=      5-min Rain = 0
KTR1 111235Z 35022G30KT 06/03 A3009 RMK A01 T00580034  RH  085%=      5-min Rain = 0
KTR1 111236Z 35024G29KT 06/03 A3009 RMK A01 T00570033  RH  084%=      5-min Rain = 0
KTR1 111237Z 36022KT 06/03 A3009 RMK A01 T00570033  RH  085%=      5-min Rain = 0
KTR1 111238Z 00021G26KT 06/03 A3009 RMK A01 T00570034  RH  085%=      5-min Rain = 0
KTR1 111239Z 36024KT 06/03 A3009 RMK A01 T00570034  RH  085%=      5-min Rain = 0
KTR1 111240Z 35026G34KT 06/03 A3009 RMK A01 T00560034  RH  086%=      5-min Rain = 0
KTR1 111241Z 36022G27KT 06/04 A3009 RMK A01 T00560035  RH  087%=      5-min Rain = 0
KTR1 111242Z 35023G29KT 06/04 A301 RMK A01 T00550036  RH  087%=      5-min Rain = 0
KTR1 111243Z 35020KT 05/04 A301 RMK A01 T00540036  RH  088%=      5-min Rain = 0
KTR1 111244Z 34022G28KT 05/04 A301 RMK A01 T00540037  RH  089%=      5-min Rain = 0
KTR1 111245Z 35030G41KT 05/03 A3011 RMK A01 T00530033  RH  087%=      5-min Rain = 0
KTR1 111246Z 35028G34KT 05/03 A3011 RMK A01 T00510028  RH  085%=      5-min Rain = 0
KTR1 111247Z 35028G34KT 05/03 A3011 RMK A01 T00490027  RH  085%=      5-min Rain = 0
KTR1 111248Z 35025G32KT 05/03 A3011 RMK A01 T00490028  RH  086%=      5-min Rain = 0
KTR1 111249Z 36024G31KT 05/03 A3012 RMK A01 T00490027  RH  086%=      5-min Rain = 0
KTR1 111250Z 35021G28KT 05/03 A3012 RMK A01 T00480026  RH  086%=      5-min Rain = 0
KTR1 111251Z 00026G35KT 05/03 A3012 RMK A01 T00490026  RH  085%=      5-min Rain = 0
KTR1 111252Z 36021G27KT 05/02 A3012 RMK A01 T00480024  RH  084%=      5-min Rain = 0
KTR1 111253Z 35022G27KT 05/03 A3012 RMK A01 T00480026  RH  085%=      5-min Rain = 0
KTR1 111254Z 35020G28KT 05/03 A3012 RMK A01 T00480026  RH  086%=      5-min Rain = 0
KTR1 111255Z 35021G30KT 05/03 A3012 RMK A01 T00480027  RH  086%=      5-min Rain = 0
KTR1 111256Z 35023KT 05/03 A3012 RMK A01 T00470027  RH  087%=      5-min Rain = 0
KTR1 111257Z 35023G29KT 05/03 A3012 RMK A01 T00470027  RH  087%=      5-min Rain = 0
KTR1 111258Z 35024KT 05/03 A3012 RMK A01 T00460026  RH  087%=      5-min Rain = 0
KTR1 111259Z 35021G26KT 05/03 A3012 RMK A01 T00450026  RH  087%=      5-min Rain = 0
KTR1 111300Z 34019G24KT 05/03 A3012 RMK A01 T00450027  RH  088%=      5-min Rain = 0
KTR1 111301Z 34023KT 05/03 A3012 RMK A01 T00450027  RH  089%=      5-min Rain = 0
KTR1 111302Z 35020G26KT 04/03 A3013 RMK A01 T00440027  RH  089%=      5-min Rain = 0
KTR1 111303Z 35024G29KT 04/03 A3013 RMK A01 T00430027  RH  089%=      5-min Rain = 0
KTR1 111304Z 34024G30KT 04/03 A3013 RMK A01 T00420025  RH  089%=      5-min Rain = 0
KTR1 111305Z 35021G27KT 04/02 A3014 RMK A01 T00400022  RH  088%=      5-min Rain = 0
KTR1 111306Z 35023KT 04/02 A3014 RMK A01 T00390022  RH  089%=      5-min Rain = 0
KTR1 111307Z 35019G25KT 04/02 A3014 RMK A01 T00380021  RH  089%=      5-min Rain = 0
KTR1 111308Z 35019G26KT 04/02 A3015 RMK A01 T00380021  RH  089%=      5-min Rain = 0
KTR1 111309Z 35025G33KT 04/02 A3015 RMK A01 T00370020  RH  089%=      5-min Rain = 0
KTR1 111310Z 34022KT 04/02 A3015 RMK A01 T00370018  RH  088%=      5-min Rain = 0
KTR1 111311Z 35025G34KT 04/02 A3015 RMK A01 T00360018  RH  088%=      5-min Rain = 0
KTR1 111312Z 35025G31KT 04/02 A3016 RMK A01 T00360017  RH  087%=      5-min Rain = 0
KTR1 111313Z 35020KT 04/02 A3016 RMK A01 T00360017  RH  087%=      5-min Rain = 0
KTR1 111314Z 35020G25KT 04/02 A3016 RMK A01 T00350017  RH  088%=      5-min Rain = 0
KTR1 111315Z 35025G31KT 04/02 A3016 RMK A01 T00350016  RH  087%=      5-min Rain = 0
KTR1 111316Z 00026G33KT 04/01 A3016 RMK A01 T00350014  RH  086%=      5-min Rain = 0
KTR1 111317Z 35027G32KT 04/01 A3016 RMK A01 T00350012  RH  085%=      5-min Rain = 0
KTR1 111318Z 35024G32KT 04/01 A3016 RMK A01 T00350011  RH  084%=      5-min Rain = 0
KTR1 111319Z 35027G33KT 04/01 A3017 RMK A01 T00350009  RH  083%=      5-min Rain = 0
KTR1 111320Z 35029G36KT 04/01 A3017 RMK A01 T00360008  RH  082%=      5-min Rain = 0
KTR1 111321Z 35027G34KT 04/01 A3017 RMK A01 T00350006  RH  081%=      5-min Rain = 0
KTR1 111322Z 35029G35KT 04/01 A3018 RMK A01 T00350005  RH  081%=      5-min Rain = 0
KTR1 111323Z 00031G39KT 04/01 A3018 RMK A01 T00350005  RH  081%=      5-min Rain = 0
KTR1 111324Z 00034G42KT 04/01 A3018 RMK A01 T00350005  RH  081%=      5-min Rain = 0
KTR1 111325Z 36029G37KT 03/01 A3018 RMK A01 T00340005  RH  081%=      5-min Rain = 0
KTR1 111326Z 35028KT 03/01 A3018 RMK A01 T00340005  RH  081%=      5-min Rain = 0
KTR1 111327Z 35021G26KT 03/01 A3018 RMK A01 T00340006  RH  082%=      5-min Rain = 0
KTR1 111328Z 36022G28KT 03/01 A3019 RMK A01 T00340007  RH  082%=      5-min Rain = 0
KTR1 111329Z 36019KT 03/01 A3018 RMK A01 T00340006  RH  082%=      5-min Rain = 0
KTR1 111330Z 00020KT 03/01 A3019 RMK A01 T00340008  RH  083%=      5-min Rain = 0
KTR1 111331Z 35021G26KT 03/01 A3019 RMK A01 T00340008  RH  083%=      5-min Rain = 0
KTR1 111332Z 36023KT 03/01 A3019 RMK A01 T00340007  RH  083%=      5-min Rain = 0
KTR1 111333Z 36019G25KT 03/01 A3019 RMK A01 T00340007  RH  083%=      5-min Rain = 0
KTR1 111334Z 35019KT 03/01 A3019 RMK A01 T00330008  RH  083%=      5-min Rain = 0
KTR1 111335Z 35023G32KT 03/01 A3019 RMK A01 T00340009  RH  084%=      5-min Rain = 0
KTR1 111336Z 36020G27KT 03/01 A3019 RMK A01 T00330009  RH  084%=      5-min Rain = 0
KTR1 111337Z 36021G26KT 03/01 A3019 RMK A01 T00320010  RH  085%=      5-min Rain = 0
KTR1 111338Z 35022KT 03/01 A3019 RMK A01 T00320010  RH  085%=      5-min Rain = 0
KTR1 111339Z 35025KT 03/01 A3019 RMK A01 T00310009  RH  086%=      5-min Rain = 0
KTR1 111340Z 36022G28KT 03/01 A302 RMK A01 T00310009  RH  085%=      5-min Rain = 0
KTR1 111341Z 35024KT 03/01 A302 RMK A01 T00310009  RH  086%=      5-min Rain = 0
KTR1 111342Z 35022KT 03/01 A302 RMK A01 T00310009  RH  086%=      5-min Rain = 0
KTR1 111343Z 35026G36KT 03/01 A302 RMK A01 T00310009  RH  085%=      5-min Rain = 0
KTR1 111344Z 36023G33KT 03/01 A302 RMK A01 T00310006  RH  084%=      5-min Rain = 0
KTR1 111345Z 35024KT 03/01 A302 RMK A01 T00310007  RH  084%=      5-min Rain = 0
KTR1 111346Z 35025G30KT 03/01 A302 RMK A01 T00310006  RH  084%=      5-min Rain = 0
KTR1 111347Z 36018KT 03/01 A302 RMK A01 T00310007  RH  084%=      5-min Rain = 0
KTR1 111348Z 35019KT 03/01 A302 RMK A01 T00300007  RH  085%=      5-min Rain = 0
KTR1 111349Z 35019KT 03/01 A302 RMK A01 T00300008  RH  085%=      5-min Rain = 0
KTR1 111350Z 36024G32KT 03/01 A302 RMK A01 T00300008  RH  085%=      5-min Rain = 0
KTR1 111351Z 35021G32KT 03/01 A302 RMK A01 T00300008  RH  085%=      5-min Rain = 0
KTR1 111352Z 36027G36KT 03/01 A302 RMK A01 T00300006  RH  085%=      5-min Rain = 0
KTR1 111353Z 35028G37KT 03/00 A302 RMK A01 T00280003  RH  083%=      5-min Rain = 0
KTR1 111354Z 35024G29KT 03/00 A302 RMK A01 T00280004  RH  084%=      5-min Rain = 0
KTR1 111355Z 35028G34KT 03/00 A3021 RMK A01 T00280002  RH  083%=      5-min Rain = 0
KTR1 111356Z 35024G30KT 03/00 A3021 RMK A01 T00280001  RH  083%=      5-min Rain = 0
KTR1 111357Z 35030G35KT 03/00 A3021 RMK A01 T00280001  RH  083%=      5-min Rain = 0
KTR1 111358Z 35027G36KT 03/M00 A3021 RMK A01 T00271001  RH  082%=      5-min Rain = 0
KTR1 111359Z 35031KT 03/00 A3022 RMK A01 T002600-0  RH  083%=      5-min Rain = 0
KTR1 111400Z 35026G32KT 03/00 A3021 RMK A01 T002600-0  RH  083%=      5-min Rain = 0
KTR1 111401Z 36025G32KT 03/00 A3022 RMK A01 T00260000  RH  083%=      5-min Rain = 0
KTR1 111402Z 35022G30KT 03/00 A3022 RMK A01 T00250001  RH  084%=      5-min Rain = 0
KTR1 111403Z 36027G32KT 03/00 A3022 RMK A01 T00250002  RH  084%=      5-min Rain = 0
KTR1 111404Z 35026G32KT 03/00 A3022 RMK A01 T00250001  RH  084%=      5-min Rain = 0
KTR1 111405Z 35027G35KT 02/00 A3022 RMK A01 T00240001  RH  085%=      5-min Rain = 0
KTR1 111406Z 34030G36KT 02/M00 A3022 RMK A01 T00231002  RH  084%=      5-min Rain = 0
KTR1 111407Z 34027G32KT 02/M00 A3023 RMK A01 T00221004  RH  084%=      5-min Rain = 0
KTR1 111408Z 34026G32KT 02/M00 A3023 RMK A01 T00211004  RH  084%=      5-min Rain = 0
KTR1 111409Z 35023G29KT 02/M00 A3023 RMK A01 T00211004  RH  084%=      5-min Rain = 0
KTR1 111410Z 34024G32KT 02/M00 A3023 RMK A01 T00211003  RH  084%=      5-min Rain = 0
KTR1 111411Z 34023KT 02/M00 A3023 RMK A01 T00211003  RH  084%=      5-min Rain = 0
KTR1 111412Z 35022G29KT 02/M00 A3023 RMK A01 T00201002  RH  085%=      5-min Rain = 0
KTR1 111413Z 35022G28KT 02/M00 A3023 RMK A01 T00201002  RH  085%=      5-min Rain = 0
KTR1 111414Z 36021G26KT 02/M00 A3023 RMK A01 T00201001  RH  086%=      5-min Rain = 0
KTR1 111415Z 35025G31KT 02/M00 A3023 RMK A01 T00201001  RH  086%=      5-min Rain = 0
KTR1 111416Z 35029G40KT 02/M00 A3023 RMK A01 T00201003  RH  085%=      5-min Rain = 0
KTR1 111417Z 35026G33KT 02/M00 A3023 RMK A01 T00191004  RH  085%=      5-min Rain = 0
KTR1 111418Z 00022G28KT 02/M00 A3024 RMK A01 T00181003  RH  086%=      5-min Rain = 0
KTR1 111419Z 00028G37KT 02/M00 A3024 RMK A01 T00171003  RH  086%=      5-min Rain = 0
KTR1 111420Z 01023G29KT 02/M01 A3024 RMK A01 T00181005  RH  085%=      5-min Rain = 0
KTR1 111421Z 00025G37KT 02/M01 A3024 RMK A01 T00181005  RH  085%=      5-min Rain = 0
KTR1 111422Z 00025G33KT 02/M01 A3024 RMK A01 T00171008  RH  083%=      5-min Rain = 0
KTR1 111423Z 01024KT 02/M01 A3024 RMK A01 T00181008  RH  083%=      5-min Rain = 0
KTR1 111424Z 00024G31KT 02/M01 A3024 RMK A01 T00181008  RH  083%=      5-min Rain = 0
KTR1 111425Z 00019G27KT 02/M01 A3024 RMK A01 T00181008  RH  083%=      5-min Rain = 0
KTR1 111426Z 00020G25KT 02/M01 A3025 RMK A01 T00181005  RH  085%=      5-min Rain = 0
KTR1 111427Z 00022G28KT 02/M01 A3025 RMK A01 T00171005  RH  085%=      5-min Rain = 0
KTR1 111428Z 00017G24KT 02/M01 A3025 RMK A01 T00171005  RH  086%=      5-min Rain = 0
KTR1 111429Z 00018G23KT 02/M00 A3025 RMK A01 T00161003  RH  087%=      5-min Rain = 0
KTR1 111430Z 36021G26KT 02/M00 A3025 RMK A01 T00161002  RH  088%=      5-min Rain = 0
KTR1 111431Z 36020KT 02/M00 A3025 RMK A01 T00161002  RH  088%=      5-min Rain = 0
KTR1 111432Z 00025G34KT 02/M00 A3025 RMK A01 T00161002  RH  088%=      5-min Rain = 0
KTR1 111433Z 35022G27KT 02/M00 A3025 RMK A01 T00161003  RH  087%=      5-min Rain = 0
KTR1 111434Z 35023KT 02/M00 A3025 RMK A01 T00151003  RH  087%=      5-min Rain = 0
KTR1 111435Z 35020KT 02/M00 A3025 RMK A01 T00151004  RH  087%=      5-min Rain = 0
KTR1 111436Z 35020G31KT 02/M00 A3026 RMK A01 T00151002  RH  088%=      5-min Rain = 0
KTR1 111437Z 35025G31KT 02/M00 A3026 RMK A01 T00151003  RH  088%=      5-min Rain = 0
KTR1 111438Z 36024G30KT 02/M00 A3026 RMK A01 T00151003  RH  088%=      5-min Rain = 0
KTR1 111439Z 36031G38KT 01/M00 A3026 RMK A01 T00141004  RH  088%=      5-min Rain = 0
KTR1 111440Z 36028G35KT 01/M01 A3026 RMK A01 T00131007  RH  086%=      5-min Rain = 0
KTR1 111441Z 36027G32KT 01/M01 A3026 RMK A01 T00131007  RH  087%=      5-min Rain = 0
KTR1 111442Z 00025G38KT 01/M01 A3027 RMK A01 T00131006  RH  087%=      5-min Rain = 0
KTR1 111443Z 36024G32KT 01/M01 A3026 RMK A01 T00131007  RH  087%=      5-min Rain = 0
KTR1 111444Z 36028G38KT 01/M01 A3026 RMK A01 T00121009  RH  086%=      5-min Rain = 0
KTR1 111445Z 00026G33KT 01/M01 A3026 RMK A01 T00121010  RH  085%=      5-min Rain = 0
KTR1 111446Z 36023G29KT 01/M01 A3026 RMK A01 T00121010  RH  086%=      5-min Rain = 0
KTR1 111447Z 00027G33KT 01/M01 A3026 RMK A01 T00121009  RH  086%=      5-min Rain = 0
KTR1 111448Z 00028KT 01/M01 A3026 RMK A01 T00121009  RH  086%=      5-min Rain = 0
KTR1 111449Z 36026G31KT 01/M01 A3026 RMK A01 T00121010  RH  085%=      5-min Rain = 0
KTR1 111450Z 00023G29KT 01/M01 A3026 RMK A01 T00121010  RH  086%=      5-min Rain = 0
KTR1 111451Z 36023KT 01/M01 A3027 RMK A01 T00121009  RH  086%=      5-min Rain = 0
KTR1 111452Z 35017G29KT 01/M01 A3027 RMK A01 T00131008  RH  086%=      5-min Rain = 0
KTR1 111453Z 36027G37KT 01/M01 A3027 RMK A01 T00131009  RH  085%=      5-min Rain = 0
KTR1 111454Z 00027G32KT 01/M01 A3027 RMK A01 T00131012  RH  083%=      5-min Rain = 0
KTR1 111455Z 36028G34KT 01/M01 A3027 RMK A01 T00131014  RH  083%=      5-min Rain = 0
KTR1 111456Z 35026G31KT 01/M02 A3027 RMK A01 T00121016  RH  082%=      5-min Rain = 0
KTR1 111457Z 36024G29KT 01/M02 A3027 RMK A01 T00111016  RH  082%=      5-min Rain = 0
KTR1 111458Z 35025G33KT 01/M02 A3027 RMK A01 T00111016  RH  082%=      5-min Rain = 0
KTR1 111459Z 36030G37KT 01/M02 A3027 RMK A01 T00101019  RH  081%=      5-min Rain = 0
KTR1 111500Z 35027G33KT 01/M02 A3028 RMK A01 T00101021  RH  080%=      5-min Rain = 0
KTR1 111501Z 35025G32KT 01/M02 A3028 RMK A01 T00091021  RH  080%=      5-min Rain = 0
KTR1 111502Z 35027G35KT 01/M02 A3028 RMK A01 T00091021  RH  080%=      5-min Rain = 0
KTR1 111503Z 35027G37KT 01/M02 A3028 RMK A01 T00091022  RH  080%=      5-min Rain = 0
KTR1 111504Z 35025G31KT 01/M02 A3028 RMK A01 T00091022  RH  080%=      5-min Rain = 0
KTR1 111505Z 35029KT 01/M02 A3028 RMK A01 T00091022  RH  080%=      5-min Rain = 0
KTR1 111506Z 35032G39KT 01/M02 A3028 RMK A01 T00081023  RH  079%=      5-min Rain = 0
KTR1 111507Z 35027KT 01/M03 A3029 RMK A01 T00081025  RH  079%=      5-min Rain = 0
KTR1 111508Z 36027G36KT 01/M02 A3029 RMK A01 T00071024  RH  080%=      5-min Rain = 0
KTR1 111509Z 35030G35KT 01/M03 A3029 RMK A01 T00071025  RH  079%=      5-min Rain = 0
KTR1 111510Z 35030G36KT 01/M03 A3029 RMK A01 T00061027  RH  078%=      5-min Rain = 0
KTR1 111511Z 36028G36KT 01/M03 A303 RMK A01 T00061027  RH  078%=      5-min Rain = 0
KTR1 111512Z 35027G33KT 01/M03 A303 RMK A01 T00061027  RH  079%=      5-min Rain = 0
KTR1 111513Z 35029KT 01/M03 A303 RMK A01 T00061028  RH  078%=      5-min Rain = 0
KTR1 111514Z 35027G34KT 01/M03 A303 RMK A01 T00051029  RH  078%=      5-min Rain = 0
KTR1 111515Z 00025G30KT 01/M03 A303 RMK A01 T00051029  RH  078%=      5-min Rain = 0
KTR1 111516Z 36029G39KT 01/M03 A303 RMK A01 T00051029  RH  078%=      5-min Rain = 0
KTR1 111517Z 35032G37KT 01/M03 A303 RMK A01 T00051031  RH  077%=      5-min Rain = 0
KTR1 111518Z 00026G31KT 01/M03 A303 RMK A01 T00051032  RH  077%=      5-min Rain = 0
KTR1 111519Z 36027G35KT 01/M03 A303 RMK A01 T00051032  RH  077%=      5-min Rain = 0
KTR1 111520Z 35027G34KT 01/M03 A303 RMK A01 T00051032  RH  076%=      5-min Rain = 0
KTR1 111521Z 36028G36KT 01/M03 A303 RMK A01 T00051032  RH  076%=      5-min Rain = 0
KTR1 111522Z 35030G36KT 01/M03 A303 RMK A01 T00051032  RH  076%=      5-min Rain = 0
KTR1 111523Z 35028G36KT 01/M03 A303 RMK A01 T00051034  RH  075%=      5-min Rain = 0
KTR1 111524Z 36027G34KT 01/M03 A303 RMK A01 T00051032  RH  076%=      5-min Rain = 0
KTR1 111525Z 35032G39KT 01/M03 A303 RMK A01 T00061032  RH  076%=      5-min Rain = 0
KTR1 111526Z 35026G36KT 01/M03 A303 RMK A01 T00051033  RH  075%=      5-min Rain = 0
KTR1 111527Z 01027G36KT 01/M03 A303 RMK A01 T00051033  RH  076%=      5-min Rain = 0
KTR1 111528Z 00026G33KT 01/M03 A303 RMK A01 T00051033  RH  075%=      5-min Rain = 0
KTR1 111529Z 00028G33KT 01/M03 A303 RMK A01 T00051033  RH  076%=      5-min Rain = 0
KTR1 111530Z 36028G37KT 01/M03 A303 RMK A01 T00051034  RH  075%=      5-min Rain = 0
KTR1 111531Z 36022G29KT 00/M03 A303 RMK A01 T00041034  RH  076%=      5-min Rain = 0
KTR1 111532Z 36026G35KT 01/M03 A3031 RMK A01 T00051032  RH  076%=      5-min Rain = 0
KTR1 111533Z 36027G32KT 01/M03 A3031 RMK A01 T00051034  RH  075%=      5-min Rain = 0
KTR1 111534Z 35027G34KT 00/M03 A3031 RMK A01 T00041034  RH  075%=      5-min Rain = 0
KTR1 111535Z 35026G33KT 00/M03 A3031 RMK A01 T00041034  RH  075%=      5-min Rain = 0
KTR1 111536Z 36027KT 00/M03 A3031 RMK A01 T00041034  RH  076%=      5-min Rain = 0
KTR1 111537Z 00024G33KT 00/M03 A3032 RMK A01 T00041034  RH  075%=      5-min Rain = 0
KTR1 111538Z 35027G33KT 00/M04 A3032 RMK A01 T00041035  RH  075%=      5-min Rain = 0
KTR1 111539Z 36026KT 00/M04 A3032 RMK A01 T00031036  RH  075%=      5-min Rain = 0
KTR1 111540Z 36022G27KT 00/M04 A3033 RMK A01 T00041035  RH  075%=      5-min Rain = 0
KTR1 111541Z 35021KT 00/M04 A3033 RMK A01 T00041035  RH  075%=      5-min Rain = 0
KTR1 111542Z 35026G35KT 00/M04 A3032 RMK A01 T00041035  RH  075%=      5-min Rain = 0
KTR1 111543Z 36022G28KT 00/M04 A3033 RMK A01 T00041035  RH  075%=      5-min Rain = 0
KTR1 111544Z 35024KT 00/M04 A3033 RMK A01 T00041035  RH  075%=      5-min Rain = 0
KTR1 111545Z 35022G29KT 00/M03 A3033 RMK A01 T00041034  RH  075%=      5-min Rain = 0
KTR1 111546Z 35026G34KT 00/M03 A3033 RMK A01 T00041034  RH  075%=      5-min Rain = 0
KTR1 111547Z 35023G29KT 00/M04 A3033 RMK A01 T00041036  RH  075%=      5-min Rain = 0
KTR1 111548Z 35025G33KT 00/M04 A3033 RMK A01 T00031036  RH  075%=      5-min Rain = 0
KTR1 111549Z 35025G31KT 00/M04 A3034 RMK A01 T00031036  RH  075%=      5-min Rain = 0
KTR1 111550Z 36025G31KT 00/M04 A3034 RMK A01 T00031036  RH  075%=      5-min Rain = 0
KTR1 111551Z 36017G22KT 00/M04 A3034 RMK A01 T00031035  RH  076%=      5-min Rain = 0
KTR1 111552Z 00017G26KT 00/M03 A3034 RMK A01 T00031032  RH  077%=      5-min Rain = 0
KTR1 111553Z 35027G36KT 00/M03 A3034 RMK A01 T00031034  RH  076%=      5-min Rain = 0
KTR1 111554Z 35028G33KT 00/M04 A3034 RMK A01 T00031037  RH  075%=      5-min Rain = 0
KTR1 111555Z 00020KT 00/M04 A3035 RMK A01 T00021037  RH  075%=      5-min Rain = 0
KTR1 111556Z 01027G38KT 00/M04 A3035 RMK A01 T00021037  RH  075%=      5-min Rain = 0
KTR1 111557Z 36027G32KT 00/M04 A3035 RMK A01 T00011039  RH  074%=      5-min Rain = 0
KTR1 111558Z 36023G29KT 00/04 A3035 RMK A01 T00-00-40  RH  075%=      5-min Rain = 0
KTR1 111559Z 36032G39KT M00/M04 A3035 RMK A01 T10011040  RH  075%=      5-min Rain = 0
KTR1 111600Z 36029G37KT M00/M04 A3035 RMK A01 T10011041  RH  074%=      5-min Rain = 0
KTR1 111601Z 01027G34KT M00/M04 A3035 RMK A01 T10011041  RH  075%=      5-min Rain = 0
KTR1 111602Z 01025G31KT M00/M04 A3035 RMK A01 T10011040  RH  075%=      5-min Rain = 0
KTR1 111603Z 00024G30KT M00/M04 A3035 RMK A01 T10011040  RH  075%=      5-min Rain = 0
KTR1 111604Z 01021G28KT M00/M04 A3035 RMK A01 T10011039  RH  076%=      5-min Rain = 0
KTR1 111605Z 01023G29KT 00/04 A3035 RMK A01 T00-00-38  RH  076%=      5-min Rain = 0
KTR1 111606Z 00022G29KT 00/04 A3035 RMK A01 T00-00-38  RH  076%=      5-min Rain = 0
KTR1 111607Z 35020G26KT M00/M04 A3035 RMK A01 T10011037  RH  076%=      5-min Rain = 0
KTR1 111608Z 36023G28KT M00/M04 A3035 RMK A01 T10011037  RH  077%=      5-min Rain = 0
KTR1 111609Z 00018G23KT M00/M04 A3035 RMK A01 T10011037  RH  077%=      5-min Rain = 0
KTR1 111610Z 36018G24KT M00/M04 A3035 RMK A01 T10011036  RH  077%=      5-min Rain = 0
KTR1 111611Z 00021G28KT 00/04 A3036 RMK A01 T00-00-35  RH  077%=      5-min Rain = 0
KTR1 111612Z 36018G23KT 00/04 A3035 RMK A01 T00-00-36  RH  077%=      5-min Rain = 0
KTR1 111613Z 36023KT 00/04 A3035 RMK A01 T00-00-35  RH  077%=      5-min Rain = 0
KTR1 111614Z 35021G26KT 00/04 A3036 RMK A01 T00-00-35  RH  077%=      5-min Rain = 0
KTR1 111615Z 35021G26KT M00/M04 A3036 RMK A01 T10011035  RH  078%=      5-min Rain = 0
KTR1 111616Z 34023G28KT M00/M04 A3036 RMK A01 T10011035  RH  078%=      5-min Rain = 0
KTR1 111617Z 35018G26KT M00/M04 A3036 RMK A01 T10021036  RH  078%=      5-min Rain = 0
KTR1 111618Z 35021G29KT M00/M03 A3037 RMK A01 T10031034  RH  079%=      5-min Rain = 0
KTR1 111619Z 34028KT M00/M03 A3037 RMK A01 T10031034  RH  080%=      5-min Rain = 0
KTR1 111620Z 35025KT M00/M04 A3037 RMK A01 T10041036  RH  079%=      5-min Rain = 0
KTR1 111621Z 35024G31KT M01/M04 A3037 RMK A01 T10051035  RH  080%=      5-min Rain = 0
KTR1 111622Z 35022G28KT M01/M04 A3037 RMK A01 T10051036  RH  080%=      5-min Rain = 0
KTR1 111623Z 35023KT M01/M04 A3038 RMK A01 T10061035  RH  081%=      5-min Rain = 0
KTR1 111624Z 35022G29KT M01/M04 A3038 RMK A01 T10061035  RH  081%=      5-min Rain = 0
KTR1 111625Z 35025G33KT M01/M04 A3038 RMK A01 T10071035  RH  081%=      5-min Rain = 0
KTR1 111626Z 35025G30KT M01/M04 A3038 RMK A01 T10081035  RH  082%=      5-min Rain = 0
KTR1 111627Z 35021G27KT M01/M04 A3039 RMK A01 T10081035  RH  082%=      5-min Rain = 0
KTR1 111628Z 36021G30KT M01/M03 A3039 RMK A01 T10081034  RH  082%=      5-min Rain = 0
KTR1 111629Z 36024G30KT M01/M04 A3039 RMK A01 T10071035  RH  081%=      5-min Rain = 0
KTR1 111630Z 36019G24KT M01/M04 A3039 RMK A01 T10071036  RH  081%=      5-min Rain = 0
KTR1 111631Z 00021G28KT M01/M04 A3039 RMK A01 T10071035  RH  081%=      5-min Rain = 0
KTR1 111632Z 00022G29KT M01/M04 A3039 RMK A01 T10071036  RH  081%=      5-min Rain = 0
KTR1 111633Z 36022KT M01/M04 A3039 RMK A01 T10071036  RH  081%=      5-min Rain = 0
KTR1 111634Z 36020G25KT M01/M04 A3039 RMK A01 T10071035  RH  081%=      5-min Rain = 0
KTR1 111635Z 36024G33KT M01/M04 A304 RMK A01 T10071037  RH  080%=      5-min Rain = 0
KTR1 111636Z 35027G33KT M01/M04 A3039 RMK A01 T10081039  RH  079%=      5-min Rain = 0
KTR1 111637Z 35024G31KT M01/M04 A3039 RMK A01 T10081041  RH  079%=      5-min Rain = 0
KTR1 111638Z 00020KT M01/M04 A3039 RMK A01 T10081039  RH  080%=      5-min Rain = 0
KTR1 111639Z 35023G33KT M01/M04 A3039 RMK A01 T10081038  RH  081%=      5-min Rain = 0
KTR1 111640Z 36022KT M01/M04 A3039 RMK A01 T10081038  RH  080%=      5-min Rain = 0
KTR1 111641Z 01022G28KT M01/M04 A3039 RMK A01 T10081039  RH  080%=      5-min Rain = 0
KTR1 111642Z 35023G28KT M01/M04 A304 RMK A01 T10071039  RH  079%=      5-min Rain = 0
KTR1 111643Z 36025G32KT M01/M04 A304 RMK A01 T10071042  RH  078%=      5-min Rain = 0
KTR1 111644Z 35022G28KT M01/M04 A304 RMK A01 T10081042  RH  077%=      5-min Rain = 0
KTR1 111645Z 35022G29KT M01/M04 A304 RMK A01 T10081041  RH  078%=      5-min Rain = 0
KTR1 111646Z 35023G30KT M01/M04 A304 RMK A01 T10071041  RH  078%=      5-min Rain = 0
KTR1 111647Z 35026G34KT M01/M04 A304 RMK A01 T10071041  RH  078%=      5-min Rain = 0
KTR1 111648Z 35024G29KT M01/M04 A304 RMK A01 T10081043  RH  077%=      5-min Rain = 0
KTR1 111649Z 36024KT M01/M04 A304 RMK A01 T10101043  RH  078%=      5-min Rain = 0
KTR1 111650Z 35020G25KT M01/M04 A3041 RMK A01 T10101043  RH  078%=      5-min Rain = 0
KTR1 111651Z 00022G27KT M01/M04 A3041 RMK A01 T10101042  RH  079%=      5-min Rain = 0
KTR1 111652Z 35018KT M01/M04 A3041 RMK A01 T10111042  RH  079%=      5-min Rain = 0
KTR1 111653Z 35022G30KT M01/M04 A3041 RMK A01 T10111040  RH  080%=      5-min Rain = 0
KTR1 111654Z 36019G27KT M01/M04 A3041 RMK A01 T10111040  RH  080%=      5-min Rain = 0
KTR1 111655Z 36023KT M01/M04 A3041 RMK A01 T10121041  RH  081%=      5-min Rain = 0
KTR1 111656Z 35022G30KT M01/M04 A3041 RMK A01 T10121041  RH  081%=      5-min Rain = 0
KTR1 111657Z 36023KT M01/M04 A3041 RMK A01 T10131042  RH  081%=      5-min Rain = 0
KTR1 111658Z 36018G23KT M01/M04 A3041 RMK A01 T10131041  RH  081%=      5-min Rain = 0
KTR1 111659Z 35021G27KT M01/M04 A3041 RMK A01 T10131041  RH  081%=      5-min Rain = 0
KTR1 111700Z 35021KT M01/M04 A3041 RMK A01 T10131041  RH  081%=      5-min Rain = 0
KTR1 111701Z 35022G27KT M01/M04 A3041 RMK A01 T10131041  RH  081%=      5-min Rain = 0
KTR1 111702Z 36016KT M01/M04 A3041 RMK A01 T10121040  RH  081%=      5-min Rain = 0
KTR1 111703Z 35019KT M01/M04 A3041 RMK A01 T10111038  RH  082%=      5-min Rain = 0
KTR1 111704Z 35019KT M01/M04 A3041 RMK A01 T10101039  RH  081%=      5-min Rain = 0
KTR1 111705Z 35022G31KT M01/M04 A3041 RMK A01 T10111040  RH  081%=      5-min Rain = 0
KTR1 111706Z 35023G32KT M01/M04 A3041 RMK A01 T10111042  RH  079%=      5-min Rain = 0
KTR1 111707Z 36024KT M01/M04 A3041 RMK A01 T10111042  RH  080%=      5-min Rain = 0
KTR1 111708Z 36023G30KT M01/M04 A3041 RMK A01 T10121043  RH  079%=      5-min Rain = 0
KTR1 111709Z 35018G27KT M01/M04 A3041 RMK A01 T10121041  RH  080%=      5-min Rain = 0
KTR1 111710Z 35019G24KT M01/M04 A3041 RMK A01 T10121041  RH  080%=      5-min Rain = 0
KTR1 111711Z 35023G30KT M01/M04 A3041 RMK A01 T10121041  RH  080%=      5-min Rain = 0
KTR1 111712Z 35024G32KT M01/M04 A3041 RMK A01 T10111042  RH  080%=      5-min Rain = 0
KTR1 111713Z 36021G26KT M01/M04 A3041 RMK A01 T10111041  RH  080%=      5-min Rain = 0
KTR1 111714Z 36020G25KT M01/M04 A3042 RMK A01 T10121041  RH  081%=      5-min Rain = 0
KTR1 111715Z 36023G31KT M01/M04 A3042 RMK A01 T10111040  RH  081%=      5-min Rain = 0
KTR1 111716Z 36022G28KT M01/M04 A3042 RMK A01 T10111040  RH  081%=      5-min Rain = 0
KTR1 111717Z 36022G28KT M01/M04 A3042 RMK A01 T10121041  RH  081%=      5-min Rain = 0
KTR1 111718Z 36023G30KT M01/M04 A3041 RMK A01 T10121040  RH  082%=      5-min Rain = 0
KTR1 111719Z 00023G29KT M01/M04 A3042 RMK A01 T10121039  RH  082%=      5-min Rain = 0
KTR1 111720Z 01021KT M01/M04 A3042 RMK A01 T10131039  RH  082%=      5-min Rain = 0
KTR1 111721Z 36020G25KT M01/M04 A3042 RMK A01 T10131038  RH  083%=      5-min Rain = 0
KTR1 111722Z 36020G26KT M01/M04 A3042 RMK A01 T10131036  RH  084%=      5-min Rain = 0
KTR1 111723Z 36018KT M01/M04 A3042 RMK A01 T10121035  RH  084%=      5-min Rain = 0
KTR1 111724Z 36019KT M01/M04 A3042 RMK A01 T10121035  RH  084%=      5-min Rain = 0
KTR1 111725Z 36019G24KT M01/M04 A3042 RMK A01 T10121036  RH  084%=      5-min Rain = 0
KTR1 111726Z 00021G28KT M01/M04 A3042 RMK A01 T10121035  RH  084%=      5-min Rain = 0
KTR1 111727Z 36022KT M01/M04 A3042 RMK A01 T10121036  RH  084%=      5-min Rain = 0
KTR1 111728Z 00020G28KT M01/M04 A3042 RMK A01 T10121037  RH  083%=      5-min Rain = 0
KTR1 111729Z 36019KT M01/M04 A3042 RMK A01 T10121036  RH  084%=      5-min Rain = 0
KTR1 111730Z 00018G25KT M01/M04 A3042 RMK A01 T10121036  RH  084%=      5-min Rain = 0
KTR1 111731Z 00022KT M01/M04 A3042 RMK A01 T10121035  RH  084%=      5-min Rain = 0
KTR1 111732Z 00021KT M01/M04 A3043 RMK A01 T10121036  RH  084%=      5-min Rain = 0
KTR1 111733Z 35019KT M01/M04 A3043 RMK A01 T10121035  RH  084%=      5-min Rain = 0
KTR1 111734Z 36020KT M01/M04 A3043 RMK A01 T10121035  RH  085%=      5-min Rain = 0
KTR1 111735Z 36020G26KT M01/M04 A3043 RMK A01 T10131035  RH  085%=      5-min Rain = 0
KTR1 111736Z 35020KT M01/M03 A3043 RMK A01 T10131034  RH  086%=      5-min Rain = 0
KTR1 111737Z 35019G25KT M01/M03 A3043 RMK A01 T10131033  RH  086%=      5-min Rain = 0
KTR1 111738Z 36017G22KT M01/M03 A3043 RMK A01 T10131033  RH  087%=      5-min Rain = 0
KTR1 111739Z 35020KT M01/M03 A3043 RMK A01 T10141032  RH  087%=      5-min Rain = 0
KTR1 111740Z 36020G25KT M01/M03 A3043 RMK A01 T10141032  RH  087%=      5-min Rain = 0
KTR1 111741Z 36020G26KT M01/M03 A3043 RMK A01 T10141032  RH  088%=      5-min Rain = 0
KTR1 111742Z 36019G26KT M01/M03 A3043 RMK A01 T10141031  RH  088%=      5-min Rain = 0
KTR1 111743Z 00022KT M01/M03 A3043 RMK A01 T10141032  RH  088%=      5-min Rain = 0
KTR1 111744Z 00020KT M01/M03 A3043 RMK A01 T10141032  RH  088%=      5-min Rain = 0
KTR1 111745Z 36020KT M01/M03 A3043 RMK A01 T10141033  RH  088%=      5-min Rain = 0
KTR1 111746Z 00020G25KT M02/M03 A3043 RMK A01 T10151032  RH  088%=      5-min Rain = 0
KTR1 111747Z 00018G25KT M01/M03 A3043 RMK A01 T10141032  RH  088%=      5-min Rain = 0
KTR1 111748Z 00017KT M01/M03 A3043 RMK A01 T10141031  RH  089%=      5-min Rain = 0
KTR1 111749Z 35019G24KT M01/M03 A3043 RMK A01 T10141031  RH  088%=      5-min Rain = 0
KTR1 111750Z 36020KT M01/M03 A3044 RMK A01 T10141032  RH  088%=      5-min Rain = 0
KTR1 111751Z 35019G25KT M01/M03 A3044 RMK A01 T10141031  RH  088%=      5-min Rain = 0
KTR1 111752Z 35016G23KT M01/M03 A3043 RMK A01 T10141030  RH  089%=      5-min Rain = 0
KTR1 111753Z 35017G23KT M01/M03 A3043 RMK A01 T10141030  RH  089%=      5-min Rain = 0
KTR1 111754Z 36017G23KT M01/M03 A3043 RMK A01 T10141029  RH  089%=      5-min Rain = 0
KTR1 111755Z 35021G26KT M01/M03 A3043 RMK A01 T10141030  RH  089%=      5-min Rain = 0
KTR1 111756Z 36020G26KT M01/M03 A3044 RMK A01 T10141030  RH  088%=      5-min Rain = 0
KTR1 111757Z 36015G20KT M01/M03 A3044 RMK A01 T10141031  RH  088%=      5-min Rain = 0
KTR1 111758Z 00018G23KT M01/M03 A3044 RMK A01 T10141030  RH  089%=      5-min Rain = 0
KTR1 111759Z 35019G26KT M01/M03 A3044 RMK A01 T10141030  RH  088%=      5-min Rain = 0
KTR1 111800Z 35019G24KT M01/M03 A3044 RMK A01 T10141031  RH  088%=      5-min Rain = 0
KTR1 111801Z 35015G23KT M01/M03 A3044 RMK A01 T10141031  RH  089%=      5-min Rain = 0
KTR1 111802Z 36020KT M01/M03 A3044 RMK A01 T10141031  RH  088%=      5-min Rain = 0
KTR1 111803Z 00021G26KT M01/M03 A3044 RMK A01 T10141032  RH  087%=      5-min Rain = 0
KTR1 111804Z 36020G27KT M01/M03 A3044 RMK A01 T10141033  RH  087%=      5-min Rain = 0
KTR1 111805Z 00021G27KT M01/M03 A3044 RMK A01 T10141034  RH  087%=      5-min Rain = 0
KTR1 111806Z 35018KT M02/M03 A3044 RMK A01 T10151034  RH  087%=      5-min Rain = 0
KTR1 111807Z 00015KT M02/M03 A3044 RMK A01 T10151032  RH  088%=      5-min Rain = 0
KTR1 111808Z 00019G24KT M02/M03 A3044 RMK A01 T10151032  RH  088%=      5-min Rain = 0
KTR1 111809Z 00016G22KT M02/M03 A3044 RMK A01 T10151033  RH  087%=      5-min Rain = 0
KTR1 111810Z 00015G23KT M02/M03 A3044 RMK A01 T10151033  RH  087%=      5-min Rain = 0
KTR1 111811Z 00017KT M02/M03 A3044 RMK A01 T10151032  RH  088%=      5-min Rain = 0
KTR1 111812Z 35019G24KT M02/M03 A3045 RMK A01 T10151032  RH  088%=      5-min Rain = 0
KTR1 111813Z 36015KT M02/M03 A3045 RMK A01 T10151033  RH  088%=      5-min Rain = 0
KTR1 111814Z 36013KT M02/M03 A3045 RMK A01 T10151031  RH  089%=      5-min Rain = 0
KTR1 111815Z 35017KT M01/M03 A3045 RMK A01 T10141029  RH  090%=      5-min Rain = 0
KTR1 111816Z 35016G21KT M01/M03 A3045 RMK A01 T10141030  RH  089%=      5-min Rain = 0
KTR1 111817Z 35014KT M01/M03 A3045 RMK A01 T10141032  RH  088%=      5-min Rain = 0
KTR1 111818Z 35016G22KT M01/M03 A3045 RMK A01 T10141031  RH  088%=      5-min Rain = 0
KTR1 111819Z 36016KT M02/M03 A3045 RMK A01 T10151034  RH  087%=      5-min Rain = 0
KTR1 111820Z 35019G24KT M02/M04 A3045 RMK A01 T10151036  RH  086%=      5-min Rain = 0
KTR1 111821Z 36018G23KT M02/M04 A3045 RMK A01 T10151037  RH  086%=      5-min Rain = 0
KTR1 111822Z 00018KT M02/M04 A3045 RMK A01 T10161037  RH  085%=      5-min Rain = 0
KTR1 111823Z 35021KT M02/M04 A3045 RMK A01 T10161038  RH  085%=      5-min Rain = 0
KTR1 111824Z 36020G26KT M02/M04 A3045 RMK A01 T10161041  RH  083%=      5-min Rain = 0
KTR1 111825Z 36018KT M02/M04 A3045 RMK A01 T10171041  RH  083%=      5-min Rain = 0
KTR1 111826Z 35014G20KT M02/M04 A3045 RMK A01 T10171040  RH  084%=      5-min Rain = 0
KTR1 111827Z 36016G21KT M02/M04 A3045 RMK A01 T10171039  RH  085%=      5-min Rain = 0
KTR1 111828Z 35017G22KT M02/M04 A3045 RMK A01 T10171039  RH  085%=      5-min Rain = 0
KTR1 111829Z 35016KT M02/M04 A3045 RMK A01 T10171040  RH  085%=      5-min Rain = 0
KTR1 111830Z 35014KT M02/M04 A3045 RMK A01 T10171039  RH  085%=      5-min Rain = 0
KTR1 111831Z 36019KT M02/M04 A3044 RMK A01 T10161039  RH  084%=      5-min Rain = 0
KTR1 111832Z 00017KT M02/M04 A3045 RMK A01 T10161040  RH  084%=      5-min Rain = 0
KTR1 111833Z 35015KT M02/M04 A3045 RMK A01 T10171040  RH  084%=      5-min Rain = 0
KTR1 111834Z 35017KT M02/M04 A3045 RMK A01 T10171039  RH  085%=      5-min Rain = 0
KTR1 111835Z 35016G22KT M02/M04 A3045 RMK A01 T10161040  RH  084%=      5-min Rain = 0
KTR1 111836Z 35017KT M02/M04 A3045 RMK A01 T10171041  RH  084%=      5-min Rain = 0
KTR1 111837Z 35019G25KT M02/M04 A3045 RMK A01 T10171043  RH  082%=      5-min Rain = 0
KTR1 111838Z 35022G27KT M02/M05 A3045 RMK A01 T10171045  RH  081%=      5-min Rain = 0
KTR1 111839Z 35018G23KT M02/M05 A3045 RMK A01 T10181048  RH  080%=      5-min Rain = 0
KTR1 111840Z 35018G23KT M02/M05 A3044 RMK A01 T10181048  RH  080%=      5-min Rain = 0
KTR1 111841Z 34020G26KT M02/M05 A3044 RMK A01 T10181047  RH  081%=      5-min Rain = 0
KTR1 111842Z 35022G27KT M02/M05 A3045 RMK A01 T10191049  RH  079%=      5-min Rain = 0
KTR1 111843Z 35018KT M02/M05 A3045 RMK A01 T10191050  RH  079%=      5-min Rain = 0
KTR1 111844Z 34020KT M02/M05 A3045 RMK A01 T10191049  RH  080%=      5-min Rain = 0
KTR1 111845Z 35021KT M02/M05 A3045 RMK A01 T10191049  RH  080%=      5-min Rain = 0
KTR1 111846Z 35019KT M02/M05 A3045 RMK A01 T10191050  RH  079%=      5-min Rain = 0
KTR1 111847Z 35019G26KT M02/M05 A3045 RMK A01 T10191049  RH  080%=      5-min Rain = 0
KTR1 111848Z 35019KT M02/M05 A3045 RMK A01 T10181049  RH  079%=      5-min Rain = 0
KTR1 111849Z 35018G23KT M02/M05 A3045 RMK A01 T10181049  RH  079%=      5-min Rain = 0
KTR1 111850Z 36018G25KT M02/M05 A3045 RMK A01 T10181050  RH  079%=      5-min Rain = 0
KTR1 111851Z 36020KT M02/M05 A3045 RMK A01 T10181051  RH  078%=      5-min Rain = 0
KTR1 111852Z 36020KT M02/M05 A3045 RMK A01 T10191053  RH  078%=      5-min Rain = 0
KTR1 111853Z 35022G28KT M02/M05 A3045 RMK A01 T10191053  RH  078%=      5-min Rain = 0
KTR1 111854Z 36019G25KT M02/M05 A3045 RMK A01 T10191053  RH  078%=      5-min Rain = 0
KTR1 111855Z 35022G29KT M02/M05 A3045 RMK A01 T10191053  RH  078%=      5-min Rain = 0
KTR1 111856Z 35021G26KT M02/M05 A3045 RMK A01 T10191053  RH  078%=      5-min Rain = 0
KTR1 111857Z 36021KT M02/M05 A3044 RMK A01 T10191053  RH  077%=      5-min Rain = 0
KTR1 111858Z 36022G27KT M02/M05 A3044 RMK A01 T10191053  RH  077%=      5-min Rain = 0
KTR1 111859Z 36020KT M02/M05 A3044 RMK A01 T10191054  RH  077%=      5-min Rain = 0
KTR1 111900Z 36021G31KT M02/M05 A3044 RMK A01 T10201053  RH  078%=      5-min Rain = 0
KTR1 111901Z 36022KT M02/M05 A3044 RMK A01 T10201053  RH  078%=      5-min Rain = 0
KTR1 111902Z 35018G23KT M02/M05 A3044 RMK A01 T10201053  RH  078%=      5-min Rain = 0
KTR1 111903Z 36018G23KT M02/M05 A3045 RMK A01 T10201052  RH  079%=      5-min Rain = 0
KTR1 111904Z 36019G26KT M02/M05 A3045 RMK A01 T10191052  RH  078%=      5-min Rain = 0
KTR1 111905Z 35016G23KT M02/M05 A3045 RMK A01 T10191052  RH  078%=      5-min Rain = 0
KTR1 111906Z 36020KT M02/M05 A3044 RMK A01 T10191052  RH  078%=      5-min Rain = 0
KTR1 111907Z 36020G27KT M02/M05 A3044 RMK A01 T10191053  RH  077%=      5-min Rain = 0
KTR1 111908Z 35018G23KT M02/M05 A3044 RMK A01 T10181054  RH  077%=      5-min Rain = 0
KTR1 111909Z 35016G22KT M02/M05 A3045 RMK A01 T10181053  RH  077%=      5-min Rain = 0
KTR1 111910Z 00016KT M02/M05 A3045 RMK A01 T10171052  RH  077%=      5-min Rain = 0
KTR1 111911Z 00023G28KT M02/M05 A3045 RMK A01 T10171053  RH  077%=      5-min Rain = 0
KTR1 111912Z 01021G27KT M02/M06 A3045 RMK A01 T10171056  RH  075%=      5-min Rain = 0
KTR1 111913Z 00021KT M02/M06 A3045 RMK A01 T10171058  RH  074%=      5-min Rain = 0
KTR1 111914Z 35019G24KT M02/M06 A3045 RMK A01 T10181059  RH  074%=      5-min Rain = 0
KTR1 111915Z 36017KT M02/M06 A3045 RMK A01 T10181058  RH  074%=      5-min Rain = 0
KTR1 111916Z 00019KT M02/M06 A3045 RMK A01 T10171057  RH  074%=      5-min Rain = 0
KTR1 111917Z 00016KT M02/M06 A3045 RMK A01 T10171057  RH  074%=      5-min Rain = 0
KTR1 111918Z 00018G25KT M02/M06 A3045 RMK A01 T10171056  RH  074%=      5-min Rain = 0
KTR1 111919Z 01019KT M02/M06 A3045 RMK A01 T10171057  RH  074%=      5-min Rain = 0
KTR1 111920Z 00020G25KT M02/M06 A3045 RMK A01 T10171058  RH  073%=      5-min Rain = 0
KTR1 111921Z 00017KT M02/M06 A3045 RMK A01 T10171058  RH  074%=      5-min Rain = 0
KTR1 111922Z 00016KT M02/M06 A3045 RMK A01 T10171057  RH  075%=      5-min Rain = 0
KTR1 111923Z 00014G20KT M02/M06 A3045 RMK A01 T10171056  RH  075%=      5-min Rain = 0
KTR1 111924Z 00017KT M02/M06 A3045 RMK A01 T10171055  RH  075%=      5-min Rain = 0
KTR1 111925Z 36017G23KT M02/M05 A3045 RMK A01 T10161054  RH  075%=      5-min Rain = 0
KTR1 111926Z 35018KT M02/M06 A3044 RMK A01 T10161055  RH  075%=      5-min Rain = 0
KTR1 111927Z 36020KT M02/M06 A3044 RMK A01 T10161055  RH  075%=      5-min Rain = 0
KTR1 111928Z 36015G20KT M02/M06 A3044 RMK A01 T10161055  RH  075%=      5-min Rain = 0
KTR1 111929Z 00014KT M02/M05 A3044 RMK A01 T10151054  RH  075%=      5-min Rain = 0
KTR1 111930Z 35018KT M02/M05 A3044 RMK A01 T10151054  RH  075%=      5-min Rain = 0
KTR1 111931Z 35021G28KT M02/M06 A3044 RMK A01 T10151057  RH  073%=      5-min Rain = 0
KTR1 111932Z 36023G29KT M02/M06 A3044 RMK A01 T10151059  RH  072%=      5-min Rain = 0
KTR1 111933Z 36021KT M02/M06 A3044 RMK A01 T10151061  RH  071%=      5-min Rain = 0
KTR1 111934Z 36019G27KT M02/M06 A3044 RMK A01 T10151060  RH  072%=      5-min Rain = 0
KTR1 111935Z 36022KT M02/M06 A3044 RMK A01 T10151061  RH  071%=      5-min Rain = 0
KTR1 111936Z 35021G26KT M02/M06 A3044 RMK A01 T10151062  RH  070%=      5-min Rain = 0
KTR1 111937Z 36023G30KT M02/M06 A3044 RMK A01 T10151063  RH  070%=      5-min Rain = 0
KTR1 111938Z 00028G35KT M01/M07 A3044 RMK A01 T10141065  RH  068%=      5-min Rain = 0
KTR1 111939Z 00025G30KT M02/M07 A3044 RMK A01 T10151068  RH  067%=      5-min Rain = 0
KTR1 111940Z 00025G30KT M02/M07 A3044 RMK A01 T10151068  RH  067%=      5-min Rain = 0
KTR1 111941Z 01021G28KT M02/M07 A3044 RMK A01 T10151068  RH  067%=      5-min Rain = 0
KTR1 111942Z 00017G23KT M01/M06 A3044 RMK A01 T10141064  RH  069%=      5-min Rain = 0
KTR1 111943Z 36018G25KT M01/M06 A3044 RMK A01 T10131062  RH  069%=      5-min Rain = 0
KTR1 111944Z 36021G26KT M01/M06 A3044 RMK A01 T10131064  RH  068%=      5-min Rain = 0
KTR1 111945Z 36019G25KT M01/M07 A3044 RMK A01 T10131065  RH  067%=      5-min Rain = 0
KTR1 111946Z 36025G31KT M01/M07 A3045 RMK A01 T10131066  RH  067%=      5-min Rain = 0
KTR1 111947Z 35021KT M01/M07 A3045 RMK A01 T10131065  RH  067%=      5-min Rain = 0
KTR1 111948Z 36021G28KT M01/M07 A3045 RMK A01 T10131065  RH  068%=      5-min Rain = 0
KTR1 111949Z 35021G26KT M01/M07 A3045 RMK A01 T10131066  RH  067%=      5-min Rain = 0
KTR1 111950Z 35024G29KT M01/M07 A3044 RMK A01 T10131066  RH  067%=      5-min Rain = 0
KTR1 111951Z 35022G28KT M01/M07 A3045 RMK A01 T10131068  RH  066%=      5-min Rain = 0
KTR1 111952Z 35018G24KT M01/M07 A3045 RMK A01 T10131067  RH  067%=      5-min Rain = 0
KTR1 111953Z 35020G25KT M01/M07 A3045 RMK A01 T10121065  RH  067%=      5-min Rain = 0
KTR1 111954Z 35019KT M01/M06 A3045 RMK A01 T10111064  RH  067%=      5-min Rain = 0
KTR1 111955Z 35021G27KT M01/M07 A3045 RMK A01 T10101066  RH  066%=      5-min Rain = 0
KTR1 111956Z 35024KT M01/M07 A3045 RMK A01 T10111070  RH  064%=      5-min Rain = 0
KTR1 111957Z 36023G29KT M01/M07 A3045 RMK A01 T10111069  RH  065%=      5-min Rain = 0
KTR1 111958Z 36024G29KT M01/M07 A3045 RMK A01 T10111070  RH  064%=      5-min Rain = 0
KTR1 111959Z 35022G27KT M01/M07 A3045 RMK A01 T10111071  RH  064%=      5-min Rain = 0
KTR1 112000Z 35022G29KT M01/M07 A3045 RMK A01 T10121072  RH  064%=      5-min Rain = 0
KTR1 112001Z 35024G30KT M01/M07 A3045 RMK A01 T10121072  RH  064%=      5-min Rain = 0
KTR1 112002Z 35021G29KT M01/M07 A3045 RMK A01 T10121074  RH  063%=      5-min Rain = 0
KTR1 112003Z 35018KT M01/M07 A3045 RMK A01 T10121071  RH  064%=      5-min Rain = 0
KTR1 112004Z 35020G27KT M01/M07 A3045 RMK A01 T10111068  RH  066%=      5-min Rain = 0
KTR1 112005Z 36021KT M01/M07 A3045 RMK A01 T10101068  RH  065%=      5-min Rain = 0
KTR1 112006Z 00019G25KT M01/M07 A3045 RMK A01 T10101069  RH  064%=      5-min Rain = 0
KTR1 112007Z 36022G27KT M01/M07 A3045 RMK A01 T10101070  RH  064%=      5-min Rain = 0
KTR1 112008Z 36022G27KT M01/M07 A3045 RMK A01 T10101071  RH  063%=      5-min Rain = 0
KTR1 112009Z 36022G27KT M01/M07 A3045 RMK A01 T10101072  RH  063%=      5-min Rain = 0
KTR1 112010Z 00021KT M01/M07 A3045 RMK A01 T10111072  RH  063%=      5-min Rain = 0
KTR1 112011Z 01022G29KT M01/M07 A3045 RMK A01 T10101071  RH  063%=      5-min Rain = 0
KTR1 112012Z 35021G27KT M01/M07 A3045 RMK A01 T10101072  RH  063%=      5-min Rain = 0
KTR1 112013Z 35020G26KT M01/M07 A3045 RMK A01 T10101072  RH  063%=      5-min Rain = 0
KTR1 112014Z 00023G29KT M01/M07 A3046 RMK A01 T10091071  RH  063%=      5-min Rain = 0
KTR1 112015Z 36019G27KT M01/M07 A3046 RMK A01 T10091071  RH  063%=      5-min Rain = 0
KTR1 112016Z 36022G27KT M01/M07 A3046 RMK A01 T10091072  RH  062%=      5-min Rain = 0
KTR1 112017Z 35022G31KT M01/M07 A3046 RMK A01 T10091073  RH  062%=      5-min Rain = 0
KTR1 112018Z 35025G30KT M01/M07 A3046 RMK A01 T10091073  RH  062%=      5-min Rain = 0
KTR1 112019Z 35020G28KT M01/M07 A3046 RMK A01 T10091073  RH  062%=      5-min Rain = 0
KTR1 112020Z 35021G27KT M01/M07 A3046 RMK A01 T10091074  RH  061%=      5-min Rain = 0
KTR1 112021Z 36025G31KT M01/M07 A3046 RMK A01 T10091074  RH  061%=      5-min Rain = 0
KTR1 112022Z 36022G32KT M01/M08 A3046 RMK A01 T10091075  RH  061%=      5-min Rain = 0
KTR1 112023Z 00019G27KT M01/M07 A3046 RMK A01 T10091074  RH  061%=      5-min Rain = 0
KTR1 112024Z 36020G25KT M01/M07 A3046 RMK A01 T10081073  RH  062%=      5-min Rain = 0
KTR1 112025Z 35023G31KT M01/M07 A3046 RMK A01 T10081074  RH  061%=      5-min Rain = 0
KTR1 112026Z 36024KT M01/M07 A3047 RMK A01 T10081074  RH  061%=      5-min Rain = 0
KTR1 112027Z 00023KT M01/M08 A3047 RMK A01 T10081075  RH  060%=      5-min Rain = 0
KTR1 112028Z 00018KT M01/M08 A3047 RMK A01 T10081076  RH  060%=      5-min Rain = 0
KTR1 112029Z 36020G27KT M01/M07 A3047 RMK A01 T10081074  RH  061%=      5-min Rain = 0
KTR1 112030Z 36019G25KT M01/M07 A3047 RMK A01 T10071073  RH  061%=      5-min Rain = 0
KTR1 112031Z 35025KT M01/M08 A3047 RMK A01 T10071076  RH  059%=      5-min Rain = 0
KTR1 112032Z 00024G29KT M01/M08 A3047 RMK A01 T10081079  RH  058%=      5-min Rain = 0
KTR1 112033Z 36023KT M01/M08 A3047 RMK A01 T10081079  RH  059%=      5-min Rain = 0
KTR1 112034Z 00022KT M01/M08 A3047 RMK A01 T10081077  RH  059%=      5-min Rain = 0
KTR1 112035Z 00019KT M01/M08 A3047 RMK A01 T10081077  RH  059%=      5-min Rain = 0
KTR1 112036Z 00021KT M01/M08 A3047 RMK A01 T10081078  RH  059%=      5-min Rain = 0
KTR1 112037Z 00019G24KT M01/M08 A3046 RMK A01 T10071076  RH  060%=      5-min Rain = 0
KTR1 112038Z 01018KT M01/M08 A3047 RMK A01 T10061075  RH  060%=      5-min Rain = 0
KTR1 112039Z 00022G29KT M01/M08 A3047 RMK A01 T10061075  RH  060%=      5-min Rain = 0
KTR1 112040Z 36017G22KT M01/M08 A3047 RMK A01 T10061075  RH  060%=      5-min Rain = 0
KTR1 112041Z 36018KT M01/M07 A3047 RMK A01 T10051073  RH  060%=      5-min Rain = 0
KTR1 112042Z 36019KT M01/M07 A3047 RMK A01 T10051074  RH  060%=      5-min Rain = 0
KTR1 112043Z 00015KT M01/M07 A3047 RMK A01 T10051072  RH  060%=      5-min Rain = 0
KTR1 112044Z 36020G28KT M00/M07 A3047 RMK A01 T10041072  RH  060%=      5-min Rain = 0
KTR1 112045Z 36018G24KT M00/M07 A3047 RMK A01 T10041074  RH  059%=      5-min Rain = 0
KTR1 112046Z 36018G23KT M00/M07 A3047 RMK A01 T10041073  RH  060%=      5-min Rain = 0
KTR1 112047Z 00016KT M00/M07 A3047 RMK A01 T10041072  RH  060%=      5-min Rain = 0
KTR1 112048Z 00015KT M00/M07 A3046 RMK A01 T10031070  RH  061%=      5-min Rain = 0
KTR1 112049Z 00016KT M00/M07 A3047 RMK A01 T10031070  RH  060%=      5-min Rain = 0
KTR1 112050Z 00015KT M00/M07 A3047 RMK A01 T10031070  RH  060%=      5-min Rain = 0
KTR1 112051Z 01018KT M00/M07 A3047 RMK A01 T10031070  RH  060%=      5-min Rain = 0
KTR1 112052Z 36019G25KT M00/M07 A3047 RMK A01 T10031072  RH  059%=      5-min Rain = 0
KTR1 112053Z 36021G26KT M00/M07 A3047 RMK A01 T10031074  RH  059%=      5-min Rain = 0
KTR1 112054Z 36020G25KT M00/M08 A3047 RMK A01 T10031075  RH  058%=      5-min Rain = 0
KTR1 112055Z 36015KT M00/M07 A3047 RMK A01 T10041074  RH  059%=      5-min Rain = 0
KTR1 112056Z 35016G22KT M00/M07 A3047 RMK A01 T10041074  RH  059%=      5-min Rain = 0
KTR1 112057Z 36016G21KT M00/M07 A3047 RMK A01 T10041074  RH  059%=      5-min Rain = 0
KTR1 112058Z 36020G26KT M00/M08 A3047 RMK A01 T10041075  RH  059%=      5-min Rain = 0
KTR1 112059Z 35020KT M00/M08 A3047 RMK A01 T10041076  RH  058%=      5-min Rain = 0
KTR1 112100Z 36018KT M00/M08 A3047 RMK A01 T10041076  RH  058%=      5-min Rain = 0
KTR1 112101Z 01017G22KT M00/M08 A3047 RMK A01 T10041076  RH  058%=      5-min Rain = 0
KTR1 112102Z 01019G24KT M00/M08 A3047 RMK A01 T10041078  RH  057%=      5-min Rain = 0
KTR1 112103Z 00015G20KT M00/M08 A3047 RMK A01 T10041076  RH  058%=      5-min Rain = 0
KTR1 112104Z 35014KT M00/M08 A3047 RMK A01 T10031075  RH  058%=      5-min Rain = 0
KTR1 112105Z 36015G21KT M00/M07 A3047 RMK A01 T10021074  RH  058%=      5-min Rain = 0
KTR1 112106Z 36018G25KT M00/M08 A3047 RMK A01 T10021075  RH  058%=      5-min Rain = 0
KTR1 112107Z 01017KT M00/M08 A3047 RMK A01 T10021076  RH  058%=      5-min Rain = 0
KTR1 112108Z 00020KT M00/M08 A3047 RMK A01 T10021077  RH  057%=      5-min Rain = 0
KTR1 112109Z 01017G23KT M00/M08 A3047 RMK A01 T10021077  RH  057%=      5-min Rain = 0
KTR1 112110Z 36016KT M00/M08 A3047 RMK A01 T10031078  RH  057%=      5-min Rain = 0
KTR1 112111Z 00013G21KT M00/M08 A3047 RMK A01 T10031076  RH  058%=      5-min Rain = 0
KTR1 112112Z 36019G24KT M00/M08 A3047 RMK A01 T10021077  RH  057%=      5-min Rain = 0
KTR1 112113Z 36016G21KT M00/M08 A3047 RMK A01 T10031079  RH  056%=      5-min Rain = 0
KTR1 112114Z 35018G24KT M00/M08 A3047 RMK A01 T10031077  RH  058%=      5-min Rain = 0
KTR1 112115Z 00022G29KT M00/M08 A3047 RMK A01 T10031078  RH  057%=      5-min Rain = 0
KTR1 112116Z 36023G28KT M00/M08 A3047 RMK A01 T10031081  RH  056%=      5-min Rain = 0
KTR1 112117Z 35020G25KT M00/M08 A3047 RMK A01 T10041081  RH  056%=      5-min Rain = 0
KTR1 112118Z 36022KT M00/M08 A3047 RMK A01 T10041080  RH  057%=      5-min Rain = 0
KTR1 112119Z 35024G29KT M01/M08 A3047 RMK A01 T10051081  RH  056%=      5-min Rain = 0
KTR1 112120Z 35019KT M01/M08 A3047 RMK A01 T10051081  RH  057%=      5-min Rain = 0
KTR1 112121Z 35019G24KT M01/M08 A3047 RMK A01 T10051081  RH  057%=      5-min Rain = 0
KTR1 112122Z 36018G25KT M01/M08 A3047 RMK A01 T10051081  RH  056%=      5-min Rain = 0
KTR1 112123Z 36018KT M01/M08 A3047 RMK A01 T10051080  RH  057%=      5-min Rain = 0
KTR1 112124Z 36017KT M01/M08 A3047 RMK A01 T10051079  RH  057%=      5-min Rain = 0
KTR1 112125Z 01016G24KT M01/M08 A3047 RMK A01 T10051079  RH  057%=      5-min Rain = 0
KTR1 112126Z 01022KT M00/M08 A3047 RMK A01 T10041080  RH  056%=      5-min Rain = 0
KTR1 112127Z 00019KT M01/M08 A3047 RMK A01 T10051084  RH  055%=      5-min Rain = 0
KTR1 112128Z 01017G22KT M01/M08 A3047 RMK A01 T10051084  RH  055%=      5-min Rain = 0
KTR1 112129Z 00015G22KT M01/M08 A3048 RMK A01 T10061083  RH  056%=      5-min Rain = 0
KTR1 112130Z 36020G27KT M01/M08 A3048 RMK A01 T10061081  RH  057%=      5-min Rain = 0
KTR1 112131Z 35021G28KT M01/M08 A3048 RMK A01 T10051083  RH  056%=      5-min Rain = 0
KTR1 112132Z 36023G32KT M01/M08 A3048 RMK A01 T10051084  RH  055%=      5-min Rain = 0
KTR1 112133Z 35020KT M01/M09 A3048 RMK A01 T10061086  RH  054%=      5-min Rain = 0
KTR1 112134Z 00021G28KT M01/M09 A3049 RMK A01 T10061085  RH  055%=      5-min Rain = 0
KTR1 112135Z 00019G29KT M01/M09 A3049 RMK A01 T10061086  RH  055%=      5-min Rain = 0
KTR1 112136Z 36021KT M01/M09 A3049 RMK A01 T10061088  RH  054%=      5-min Rain = 0
KTR1 112137Z 00022G28KT M01/M09 A3049 RMK A01 T10061088  RH  054%=      5-min Rain = 0
KTR1 112138Z 35022G28KT M01/M09 A3049 RMK A01 T10061088  RH  054%=      5-min Rain = 0
KTR1 112139Z 00023G28KT M01/M09 A3049 RMK A01 T10061089  RH  053%=      5-min Rain = 0
KTR1 112140Z 01021G26KT M01/M09 A3049 RMK A01 T10071090  RH  053%=      5-min Rain = 0
KTR1 112141Z 36019KT M01/M09 A3049 RMK A01 T10071088  RH  054%=      5-min Rain = 0
KTR1 112142Z 00022G29KT M01/M09 A3049 RMK A01 T10071088  RH  054%=      5-min Rain = 0
KTR1 112143Z 00022KT M01/M09 A3049 RMK A01 T10071088  RH  054%=      5-min Rain = 0
KTR1 112144Z 01019KT M01/M09 A3049 RMK A01 T10071088  RH  054%=      5-min Rain = 0
KTR1 112145Z 01017G23KT M01/M09 A3049 RMK A01 T10071088  RH  054%=      5-min Rain = 0
KTR1 112146Z 01016G21KT M01/M09 A3049 RMK A01 T10071087  RH  055%=      5-min Rain = 0
KTR1 112147Z 00016G22KT M01/M09 A3049 RMK A01 T10071086  RH  055%=      5-min Rain = 0
KTR1 112148Z 01024G31KT M01/M09 A3049 RMK A01 T10061086  RH  055%=      5-min Rain = 0
KTR1 112149Z 36023G28KT M01/M09 A3049 RMK A01 T10061088  RH  054%=      5-min Rain = 0
KTR1 112150Z 36019G25KT M01/M09 A3049 RMK A01 T10071088  RH  054%=      5-min Rain = 0
KTR1 112151Z 36019G24KT M01/M09 A3049 RMK A01 T10061087  RH  055%=      5-min Rain = 0
KTR1 112152Z 36015KT M01/M09 A3049 RMK A01 T10061085  RH  055%=      5-min Rain = 0
KTR1 112153Z 00022KT M01/M08 A3049 RMK A01 T10061084  RH  056%=      5-min Rain = 0
KTR1 112154Z 01022KT M01/M09 A3049 RMK A01 T10061088  RH  054%=      5-min Rain = 0
KTR1 112155Z 01020G25KT M01/M09 A3049 RMK A01 T10061087  RH  054%=      5-min Rain = 0
KTR1 112156Z 01023G28KT M01/M09 A3049 RMK A01 T10071088  RH  054%=      5-min Rain = 0
KTR1 112157Z 01020G29KT M01/M09 A3049 RMK A01 T10071089  RH  054%=      5-min Rain = 0
KTR1 112158Z 01016KT M01/M09 A3049 RMK A01 T10071087  RH  055%=      5-min Rain = 0
KTR1 112159Z 01019G25KT M01/M09 A305 RMK A01 T10071087  RH  055%=      5-min Rain = 0
KTR1 112200Z 01021KT M01/M09 A305 RMK A01 T10071089  RH  054%=      5-min Rain = 0
KTR1 112201Z 01021G27KT M01/M09 A305 RMK A01 T10071089  RH  054%=      5-min Rain = 0
KTR1 112202Z 01019KT M01/M09 A305 RMK A01 T10071088  RH  054%=      5-min Rain = 0
KTR1 112203Z 01019KT M01/M09 A305 RMK A01 T10071088  RH  054%=      5-min Rain = 0
KTR1 112204Z 01017G24KT M01/M09 A305 RMK A01 T10071087  RH  055%=      5-min Rain = 0
KTR1 112205Z 01021G26KT M01/M09 A305 RMK A01 T10061086  RH  055%=      5-min Rain = 0
KTR1 112206Z 00019KT M01/M09 A305 RMK A01 T10061087  RH  054%=      5-min Rain = 0
KTR1 112207Z 01021G26KT M01/M09 A305 RMK A01 T10061087  RH  054%=      5-min Rain = 0
KTR1 112208Z 01020G28KT M01/M09 A305 RMK A01 T10061088  RH  054%=      5-min Rain = 0
KTR1 112209Z 00019KT M01/M09 A305 RMK A01 T10061089  RH  053%=      5-min Rain = 0
KTR1 112210Z 00019KT M01/M09 A305 RMK A01 T10061087  RH  054%=      5-min Rain = 0
KTR1 112211Z 36018G23KT M01/M09 A305 RMK A01 T10061086  RH  055%=      5-min Rain = 0
KTR1 112212Z 35020KT M01/M09 A305 RMK A01 T10061087  RH  054%=      5-min Rain = 0
KTR1 112213Z 35020G28KT M01/M09 A3051 RMK A01 T10061086  RH  055%=      5-min Rain = 0
KTR1 112214Z 35024G29KT M01/M09 A3051 RMK A01 T10061089  RH  054%=      5-min Rain = 0
KTR1 112215Z 35023KT M01/M09 A3051 RMK A01 T10071090  RH  053%=      5-min Rain = 0
KTR1 112216Z 35021G26KT M01/M09 A3051 RMK A01 T10081091  RH  053%=      5-min Rain = 0
KTR1 112217Z 35022KT M01/M09 A3051 RMK A01 T10081089  RH  054%=      5-min Rain = 0
KTR1 112218Z 35020KT M01/M09 A3051 RMK A01 T10081089  RH  055%=      5-min Rain = 0
KTR1 112219Z 35019G27KT M01/M09 A3051 RMK A01 T10091088  RH  055%=      5-min Rain = 0
KTR1 112220Z 35020G27KT M01/M09 A3051 RMK A01 T10091088  RH  055%=      5-min Rain = 0
KTR1 112221Z 35021KT M01/M09 A3051 RMK A01 T10091088  RH  055%=      5-min Rain = 0
KTR1 112222Z 35020G25KT M01/M09 A3051 RMK A01 T10091089  RH  055%=      5-min Rain = 0
KTR1 112223Z 35021KT M01/M09 A3051 RMK A01 T10091089  RH  055%=      5-min Rain = 0
KTR1 112224Z 36020KT M01/M09 A3051 RMK A01 T10091089  RH  055%=      5-min Rain = 0
KTR1 112225Z 00022KT M01/M09 A3051 RMK A01 T10091089  RH  054%=      5-min Rain = 0
KTR1 112226Z 36021G27KT M01/M09 A3051 RMK A01 T10091091  RH  054%=      5-min Rain = 0
KTR1 112227Z 00022KT M01/M09 A3051 RMK A01 T10091089  RH  055%=      5-min Rain = 0
KTR1 112228Z 36022G29KT M01/M09 A3051 RMK A01 T10091090  RH  054%=      5-min Rain = 0
KTR1 112229Z 36019G24KT M01/M09 A3051 RMK A01 T10091090  RH  054%=      5-min Rain = 0
KTR1 112230Z 00018G24KT M01/M09 A3051 RMK A01 T10091089  RH  055%=      5-min Rain = 0
KTR1 112231Z 01016G21KT M01/M09 A3051 RMK A01 T10091089  RH  055%=      5-min Rain = 0
KTR1 112232Z 36017G23KT M01/M09 A3051 RMK A01 T10091088  RH  055%=      5-min Rain = 0
KTR1 112233Z 01017G22KT M01/M09 A3052 RMK A01 T10091089  RH  055%=      5-min Rain = 0
KTR1 112234Z 01017KT M01/M09 A3052 RMK A01 T10091089  RH  054%=      5-min Rain = 0
KTR1 112235Z 01021KT M01/M09 A3052 RMK A01 T10091090  RH  054%=      5-min Rain = 0
KTR1 112236Z 01021G28KT M01/M09 A3052 RMK A01 T10091092  RH  053%=      5-min Rain = 0
KTR1 112237Z 01022KT M01/M09 A3052 RMK A01 T10091093  RH  053%=      5-min Rain = 0
KTR1 112238Z 00017KT M01/M09 A3052 RMK A01 T10091092  RH  053%=      5-min Rain = 0
KTR1 112239Z 01015KT M01/M09 A3052 RMK A01 T10091090  RH  054%=      5-min Rain = 0
KTR1 112240Z 00020KT M01/M09 A3052 RMK A01 T10091090  RH  054%=      5-min Rain = 0
KTR1 112241Z 00017KT M01/M09 A3052 RMK A01 T10091091  RH  054%=      5-min Rain = 0
KTR1 112242Z 01016KT M01/M09 A3052 RMK A01 T10091090  RH  054%=      5-min Rain = 0
KTR1 112243Z 01017G22KT M01/M09 A3052 RMK A01 T10091089  RH  054%=      5-min Rain = 0
KTR1 112244Z 36018KT M01/M09 A3052 RMK A01 T10081088  RH  055%=      5-min Rain = 0
KTR1 112245Z 00017G24KT M01/M09 A3053 RMK A01 T10081088  RH  054%=      5-min Rain = 0
KTR1 112246Z 36020G25KT M01/M09 A3053 RMK A01 T10081090  RH  054%=      5-min Rain = 0
KTR1 112247Z 36019KT M01/M09 A3052 RMK A01 T10081092  RH  053%=      5-min Rain = 0
KTR1 112248Z 35019KT M01/M09 A3052 RMK A01 T10081092  RH  053%=      5-min Rain = 0
KTR1 112249Z 35021KT M01/M09 A3052 RMK A01 T10081092  RH  053%=      5-min Rain = 0
KTR1 112250Z 35020G25KT M01/M09 A3052 RMK A01 T10081091  RH  053%=      5-min Rain = 0
KTR1 112251Z 00019G25KT M01/M09 A3052 RMK A01 T10081091  RH  054%=      5-min Rain = 0
KTR1 112252Z 00016KT M01/M09 A3052 RMK A01 T10081091  RH  053%=      5-min Rain = 0
KTR1 112253Z 35019G28KT M01/M09 A3052 RMK A01 T10081091  RH  054%=      5-min Rain = 0
KTR1 112254Z 36022KT M01/M09 A3053 RMK A01 T10081092  RH  053%=      5-min Rain = 0
KTR1 112255Z 35019KT M01/M09 A3053 RMK A01 T10081093  RH  053%=      5-min Rain = 0
KTR1 112256Z 00020G27KT M01/M09 A3053 RMK A01 T10081091  RH  053%=      5-min Rain = 0
KTR1 112257Z 00016KT M01/M09 A3053 RMK A01 T10081091  RH  054%=      5-min Rain = 0
KTR1 112258Z 00017KT M01/M09 A3053 RMK A01 T10081090  RH  054%=      5-min Rain = 0
KTR1 112259Z 36015G21KT M01/M09 A3053 RMK A01 T10081089  RH  054%=      5-min Rain = 0
KTR1 112300Z 00020G26KT M01/M09 A3053 RMK A01 T10081092  RH  053%=      5-min Rain = 0
KTR1 112301Z 36018KT M01/M09 A3053 RMK A01 T10081091  RH  053%=      5-min Rain = 0
KTR1 112302Z 00016KT M01/M09 A3053 RMK A01 T10081090  RH  054%=      5-min Rain = 0
KTR1 112303Z 00018G24KT M01/M09 A3053 RMK A01 T10081089  RH  054%=      5-min Rain = 0
KTR1 112304Z 01020KT M01/M09 A3053 RMK A01 T10081091  RH  053%=      5-min Rain = 0
KTR1 112305Z 01016KT M01/M09 A3053 RMK A01 T10081091  RH  053%=      5-min Rain = 0
KTR1 112306Z 01018G26KT M01/M09 A3053 RMK A01 T10081090  RH  054%=      5-min Rain = 0
KTR1 112307Z 01022G27KT M01/M09 A3053 RMK A01 T10081092  RH  053%=      5-min Rain = 0
KTR1 112308Z 00018G23KT M01/M09 A3053 RMK A01 T10081093  RH  052%=      5-min Rain = 0
KTR1 112309Z 01017KT M01/M09 A3053 RMK A01 T10081091  RH  053%=      5-min Rain = 0
KTR1 112310Z 00018KT M01/M09 A3053 RMK A01 T10081090  RH  054%=      5-min Rain = 0
KTR1 112311Z 00016G21KT M01/M09 A3053 RMK A01 T10081091  RH  053%=      5-min Rain = 0
KTR1 112312Z 00019KT M01/M09 A3053 RMK A01 T10081089  RH  054%=      5-min Rain = 0
KTR1 112313Z 00021KT M01/M09 A3053 RMK A01 T10081092  RH  053%=      5-min Rain = 0
KTR1 112314Z 01019G26KT M01/M09 A3053 RMK A01 T10081093  RH  053%=      5-min Rain = 0
KTR1 112315Z 00018G23KT M01/M09 A3053 RMK A01 T10081093  RH  053%=      5-min Rain = 0
KTR1 112316Z 00019KT M01/M09 A3054 RMK A01 T10081093  RH  053%=      5-min Rain = 0
KTR1 112317Z 00014G19KT M01/M09 A3054 RMK A01 T10081092  RH  053%=      5-min Rain = 0
KTR1 112318Z 36016KT M01/M09 A3054 RMK A01 T10081090  RH  054%=      5-min Rain = 0
KTR1 112319Z 36018G23KT M01/M09 A3054 RMK A01 T10081091  RH  053%=      5-min Rain = 0
KTR1 112320Z 00016KT M01/M09 A3054 RMK A01 T10081092  RH  053%=      5-min Rain = 0
KTR1 112321Z 00016KT M01/M09 A3054 RMK A01 T10081091  RH  053%=      5-min Rain = 0
KTR1 112322Z 00015G23KT M01/M09 A3054 RMK A01 T10081092  RH  053%=      5-min Rain = 0
KTR1 112323Z 36015KT M01/M09 A3054 RMK A01 T10081090  RH  054%=      5-min Rain = 0
KTR1 112324Z 00014KT M01/M09 A3054 RMK A01 T10081089  RH  054%=      5-min Rain = 0
KTR1 112325Z 36015KT M01/M09 A3054 RMK A01 T10081089  RH  054%=      5-min Rain = 0
KTR1 112326Z 01014KT M01/M09 A3054 RMK A01 T10081090  RH  054%=      5-min Rain = 0
KTR1 112327Z 01014G19KT M01/M09 A3054 RMK A01 T10081089  RH  054%=      5-min Rain = 0
KTR1 112328Z 36015KT M01/M09 A3054 RMK A01 T10081090  RH  054%=      5-min Rain = 0
KTR1 112329Z 01013KT M01/M09 A3054 RMK A01 T10081090  RH  054%=      5-min Rain = 0
KTR1 112330Z 01013KT M01/M09 A3054 RMK A01 T10081089  RH  054%=      5-min Rain = 0
KTR1 112331Z 00015G20KT M01/M09 A3054 RMK A01 T10081091  RH  054%=      5-min Rain = 0
KTR1 112332Z 01015G21KT M01/M09 A3054 RMK A01 T10081091  RH  054%=      5-min Rain = 0
KTR1 112333Z 00014G19KT M01/M09 A3054 RMK A01 T10081091  RH  053%=      5-min Rain = 0
KTR1 112334Z 01016G22KT M01/M09 A3054 RMK A01 T10081092  RH  053%=      5-min Rain = 0
KTR1 112335Z 36014KT M01/M09 A3054 RMK A01 T10081092  RH  053%=      5-min Rain = 0
KTR1 112336Z 36013KT M01/M09 A3054 RMK A01 T10081090  RH  054%=      5-min Rain = 0
KTR1 112337Z 00014KT M01/M09 A3054 RMK A01 T10081089  RH  054%=      5-min Rain = 0
KTR1 112338Z 36014G21KT M01/M09 A3054 RMK A01 T10081089  RH  054%=      5-min Rain = 0
KTR1 112339Z 36017KT M01/M09 A3054 RMK A01 T10081091  RH  053%=      5-min Rain = 0
KTR1 112340Z 35016KT M01/M09 A3054 RMK A01 T10081092  RH  053%=      5-min Rain = 0
KTR1 112341Z 01013KT M01/M09 A3054 RMK A01 T10081091  RH  053%=      5-min Rain = 0
KTR1 112342Z 00015G20KT M01/M09 A3054 RMK A01 T10081090  RH  054%=      5-min Rain = 0
KTR1 112343Z 00016KT M01/M09 A3054 RMK A01 T10081091  RH  053%=      5-min Rain = 0
KTR1 112344Z 00017KT M01/M09 A3054 RMK A01 T10081092  RH  053%=      5-min Rain = 0
KTR1 112345Z 36012KT M01/M09 A3055 RMK A01 T10081091  RH  053%=      5-min Rain = 0
KTR1 112346Z 36015KT M01/M09 A3055 RMK A01 T10081090  RH  054%=      5-min Rain = 0
KTR1 112347Z 36016KT M01/M09 A3055 RMK A01 T10081092  RH  053%=      5-min Rain = 0
KTR1 112348Z 35013KT M01/M09 A3055 RMK A01 T10081090  RH  053%=      5-min Rain = 0
KTR1 112349Z 00011KT M01/M09 A3055 RMK A01 T10081090  RH  054%=      5-min Rain = 0
KTR1 112350Z 00012KT M01/M09 A3055 RMK A01 T10081089  RH  054%=      5-min Rain = 0
KTR1 112351Z 36013G18KT M01/M09 A3055 RMK A01 T10081088  RH  055%=      5-min Rain = 0
KTR1 112352Z 35016KT M01/M09 A3055 RMK A01 T10081089  RH  054%=      5-min Rain = 0
KTR1 112353Z 01013KT M01/M09 A3055 RMK A01 T10081090  RH  054%=      5-min Rain = 0
KTR1 112354Z 01014G19KT M01/M09 A3055 RMK A01 T10081090  RH  054%=      5-min Rain = 0
KTR1 112355Z 01013KT M01/M09 A3055 RMK A01 T10081091  RH  054%=      5-min Rain = 0
KTR1 112356Z 00016KT M01/M09 A3056 RMK A01 T10081090  RH  054%=      5-min Rain = 0
KTR1 112357Z 00016G21KT M01/M09 A3056 RMK A01 T10081091  RH  053%=      5-min Rain = 0
KTR1 112358Z 35014KT M01/M09 A3056 RMK A01 T10081090  RH  054%=      5-min Rain = 0
KTR1 112359Z 00014KT M01/M09 A3056 RMK A01 T10081089  RH  054%=      5-min Rain = 0
KTR1 120000Z 36012KT M01/M09 A3056 RMK A01 T10081090  RH  054%=      5-min Rain = 0
KTR1 120001Z 36011G16KT M01/M09 A3056 RMK A01 T10071088  RH  054%=      5-min Rain = 0
KTR1 120002Z 00014KT M01/M09 A3056 RMK A01 T10071088  RH  054%=      5-min Rain = 0
KTR1 120003Z 35013KT M01/M09 A3056 RMK A01 T10071089  RH  054%=      5-min Rain = 0
KTR1 120004Z 36015KT M01/M09 A3056 RMK A01 T10071089  RH  054%=      5-min Rain = 0
KTR1 120005Z 00015KT M01/M09 A3056 RMK A01 T10071090  RH  054%=      5-min Rain = 0
KTR1 120006Z 36014KT M01/M09 A3057 RMK A01 T10071090  RH  054%=      5-min Rain = 0
KTR1 120007Z 36013KT M01/M09 A3057 RMK A01 T10061089  RH  054%=      5-min Rain = 0
KTR1 120008Z 36015KT M01/M09 A3057 RMK A01 T10061088  RH  054%=      5-min Rain = 0
KTR1 120009Z 36016KT M01/M09 A3057 RMK A01 T10071090  RH  053%=      5-min Rain = 0
KTR1 120010Z 00013KT M01/M09 A3057 RMK A01 T10061089  RH  053%=      5-min Rain = 0
KTR1 120011Z 00015KT M01/M09 A3057 RMK A01 T10061088  RH  054%=      5-min Rain = 0
KTR1 120012Z 00013KT M01/M09 A3057 RMK A01 T10061089  RH  053%=      5-min Rain = 0
KTR1 120013Z 36013KT M01/M09 A3057 RMK A01 T10061090  RH  053%=      5-min Rain = 0
KTR1 120014Z 36014KT M01/M09 A3057 RMK A01 T10061090  RH  053%=      5-min Rain = 0
KTR1 120015Z 01013G18KT M01/M09 A3057 RMK A01 T10061089  RH  054%=      5-min Rain = 0
KTR1 120016Z 01015KT M01/M09 A3057 RMK A01 T10071090  RH  053%=      5-min Rain = 0
KTR1 120017Z 00016KT M01/M09 A3057 RMK A01 T10071092  RH  052%=      5-min Rain = 0
KTR1 120018Z 01015KT M01/M10 A3057 RMK A01 T10071095  RH  051%=      5-min Rain = 0
KTR1 120019Z 00016KT M01/M10 A3057 RMK A01 T10071095  RH  051%=      5-min Rain = 0
KTR1 120020Z 00017KT M01/M10 A3057 RMK A01 T10071095  RH  051%=      5-min Rain = 0
KTR1 120021Z 00015KT M01/M09 A3057 RMK A01 T10071094  RH  052%=      5-min Rain = 0
KTR1 120022Z 00013KT M01/M09 A3057 RMK A01 T10071094  RH  052%=      5-min Rain = 0
KTR1 120023Z 00020KT M01/M09 A3057 RMK A01 T10071094  RH  052%=      5-min Rain = 0
KTR1 120024Z 00020KT M01/M10 A3058 RMK A01 T10071098  RH  050%=      5-min Rain = 0
KTR1 120025Z 00016KT M01/M10 A3058 RMK A01 T10071099  RH  050%=      5-min Rain = 0
KTR1 120026Z 36017G23KT M01/M10 A3057 RMK A01 T10071098  RH  050%=      5-min Rain = 0
KTR1 120027Z 00017KT M01/M10 A3058 RMK A01 T10071098  RH  050%=      5-min Rain = 0
KTR1 120028Z 01015KT M01/M10 A3058 RMK A01 T10071096  RH  051%=      5-min Rain = 0
KTR1 120029Z 00013KT M01/M10 A3058 RMK A01 T10071096  RH  051%=      5-min Rain = 0
KTR1 120030Z 36013G18KT M01/M10 A3058 RMK A01 T10071095  RH  051%=      5-min Rain = 0
KTR1 120031Z 01014G19KT M01/M10 A3058 RMK A01 T10071096  RH  051%=      5-min Rain = 0
KTR1 120032Z 00017KT M01/M10 A3058 RMK A01 T10081097  RH  051%=      5-min Rain = 0
KTR1 120033Z 01016G21KT M01/M10 A3058 RMK A01 T10071097  RH  051%=      5-min Rain = 0
KTR1 120034Z 01018KT M01/M10 A3058 RMK A01 T10071098  RH  050%=      5-min Rain = 0
KTR1 120035Z 00019KT M01/M10 A3058 RMK A01 T10071100  RH  050%=      5-min Rain = 0
KTR1 120036Z 00016KT M01/M10 A3058 RMK A01 T10081101  RH  049%=      5-min Rain = 0
KTR1 120037Z 00012G18KT M01/M10 A3058 RMK A01 T10071098  RH  050%=      5-min Rain = 0
KTR1 120038Z 01015G21KT M01/M10 A3058 RMK A01 T10081096  RH  051%=      5-min Rain = 0
KTR1 120039Z 36019KT M01/M10 A3058 RMK A01 T10081099  RH  050%=      5-min Rain = 0
KTR1 120040Z 01017KT M01/M10 A3058 RMK A01 T10081101  RH  049%=      5-min Rain = 0
KTR1 120041Z 01017KT M01/M10 A3058 RMK A01 T10081101  RH  049%=      5-min Rain = 0
KTR1 120042Z 00014G19KT M01/M10 A3058 RMK A01 T10081099  RH  050%=      5-min Rain = 0
KTR1 120043Z 01017G23KT M01/M10 A3058 RMK A01 T10081098  RH  051%=      5-min Rain = 0
KTR1 120044Z 00016G21KT M01/M10 A3058 RMK A01 T10081099  RH  050%=      5-min Rain = 0
KTR1 120045Z 35017G23KT M01/M10 A3058 RMK A01 T10081099  RH  050%=      5-min Rain = 0
KTR1 120046Z 00016KT M01/M10 A3059 RMK A01 T10081100  RH  050%=      5-min Rain = 0
KTR1 120047Z 00018G23KT M01/M10 A3059 RMK A01 T10081101  RH  050%=      5-min Rain = 0
KTR1 120048Z 01014KT M01/M10 A3059 RMK A01 T10081100  RH  050%=      5-min Rain = 0
KTR1 120049Z 00015KT M01/M10 A3058 RMK A01 T10091099  RH  050%=      5-min Rain = 0
KTR1 120050Z 36017KT M01/M10 A3058 RMK A01 T10091100  RH  050%=      5-min Rain = 0
KTR1 120051Z 01016G21KT M01/M10 A3058 RMK A01 T10091100  RH  050%=      5-min Rain = 0
KTR1 120052Z 00017KT M01/M10 A3058 RMK A01 T10091099  RH  050%=      5-min Rain = 0
KTR1 120053Z 01017KT M01/M10 A3058 RMK A01 T10091100  RH  050%=      5-min Rain = 0
KTR1 120054Z 00015KT M01/M10 A3059 RMK A01 T10091099  RH  050%=      5-min Rain = 0
KTR1 120055Z 01014KT M01/M10 A3059 RMK A01 T10091098  RH  051%=      5-min Rain = 0
KTR1 120056Z 00013G19KT M01/M10 A3059 RMK A01 T10101096  RH  052%=      5-min Rain = 0
KTR1 120057Z 00016KT M01/M10 A3059 RMK A01 T10091097  RH  052%=      5-min Rain = 0
KTR1 120058Z 36017G22KT M01/M10 A3059 RMK A01 T10091098  RH  051%=      5-min Rain = 0
KTR1 120059Z 00017KT M01/M10 A3059 RMK A01 T10101099  RH  051%=      5-min Rain = 0
KTR1 120100Z 00015G20KT M01/M10 A3059 RMK A01 T10101100  RH  051%=      5-min Rain = 0
KTR1 120101Z 01015KT M01/M10 A3059 RMK A01 T10091099  RH  051%=      5-min Rain = 0
KTR1 120102Z 36014KT M01/M10 A3059 RMK A01 T10101098  RH  051%=      5-min Rain = 0
KTR1 120103Z 00012KT M01/M10 A3059 RMK A01 T10101097  RH  052%=      5-min Rain = 0
KTR1 120104Z 36016KT M01/M10 A3059 RMK A01 T10101096  RH  052%=      5-min Rain = 0
KTR1 120105Z 35013KT M01/M10 A3059 RMK A01 T10101098  RH  051%=      5-min Rain = 0
KTR1 120106Z 35017KT M01/M10 A3059 RMK A01 T10101097  RH  052%=      5-min Rain = 0
KTR1 120107Z 00017G22KT M01/M10 A3059 RMK A01 T10101097  RH  052%=      5-min Rain = 0
KTR1 120108Z 36018KT M01/M10 A3059 RMK A01 T10111098  RH  052%=      5-min Rain = 0
KTR1 120109Z 01018G23KT M01/M10 A3059 RMK A01 T10111100  RH  051%=      5-min Rain = 0
KTR1 120110Z 00019KT M01/M10 A3059 RMK A01 T10111102  RH  050%=      5-min Rain = 0
KTR1 120111Z 36019G24KT M01/M10 A3059 RMK A01 T10101103  RH  049%=      5-min Rain = 0
KTR1 120112Z 00018KT M01/M10 A3059 RMK A01 T10111104  RH  049%=      5-min Rain = 0
KTR1 120113Z 36017KT M01/M10 A3059 RMK A01 T10111103  RH  050%=      5-min Rain = 0
KTR1 120114Z 36017KT M01/M10 A3059 RMK A01 T10111101  RH  051%=      5-min Rain = 0
KTR1 120115Z 35015G20KT M01/M10 A3059 RMK A01 T10121100  RH  051%=      5-min Rain = 0
KTR1 120116Z 35017KT M01/M10 A3059 RMK A01 T10121101  RH  051%=      5-min Rain = 0
KTR1 120117Z 35017G23KT M01/M10 A3059 RMK A01 T10121102  RH  050%=      5-min Rain = 0
KTR1 120118Z 35014KT M01/M10 A3059 RMK A01 T10121102  RH  051%=      5-min Rain = 0
KTR1 120119Z 36016KT M01/M10 A3059 RMK A01 T10131102  RH  051%=      5-min Rain = 0
KTR1 120120Z 36017KT M01/M10 A3059 RMK A01 T10131102  RH  051%=      5-min Rain = 0
KTR1 120121Z 36018KT M01/M10 A3059 RMK A01 T10131103  RH  050%=      5-min Rain = 0
KTR1 120122Z 00016G21KT M01/M10 A3059 RMK A01 T10131104  RH  050%=      5-min Rain = 0
KTR1 120123Z 00017G22KT M01/M10 A3059 RMK A01 T10131104  RH  050%=      5-min Rain = 0
KTR1 120124Z 36014G19KT M01/M10 A3059 RMK A01 T10131104  RH  050%=      5-min Rain = 0
KTR1 120125Z 36018KT M01/M10 A3059 RMK A01 T10131102  RH  051%=      5-min Rain = 0
KTR1 120126Z 36013KT M01/M10 A3059 RMK A01 T10131103  RH  051%=      5-min Rain = 0
KTR1 120127Z 36016KT M01/M10 A3059 RMK A01 T10141102  RH  051%=      5-min Rain = 0
KTR1 120128Z 36018KT M01/M10 A3059 RMK A01 T10141102  RH  051%=      5-min Rain = 0
KTR1 120129Z 00016G21KT M01/M10 A3059 RMK A01 T10141103  RH  051%=      5-min Rain = 0
KTR1 120130Z 36013G18KT M01/M10 A3059 RMK A01 T10141102  RH  051%=      5-min Rain = 0
KTR1 120131Z 35013KT M01/M10 A3059 RMK A01 T10141101  RH  052%=      5-min Rain = 0
KTR1 120132Z 01012KT M02/M10 A3059 RMK A01 T10151101  RH  052%=      5-min Rain = 0
KTR1 120133Z 00012KT M02/M10 A306 RMK A01 T10151100  RH  052%=      5-min Rain = 0
KTR1 120134Z 00014KT M02/M10 A306 RMK A01 T10151100  RH  052%=      5-min Rain = 0
KTR1 120135Z 00013KT M02/M10 A306 RMK A01 T10151102  RH  051%=      5-min Rain = 0
KTR1 120136Z 00011KT M02/M10 A306 RMK A01 T10151102  RH  051%=      5-min Rain = 0
KTR1 120137Z 00014KT M02/M10 A306 RMK A01 T10151101  RH  052%=      5-min Rain = 0
KTR1 120138Z 00015G20KT M02/M10 A306 RMK A01 T10151101  RH  052%=      5-min Rain = 0
KTR1 120139Z 00017G22KT M02/M10 A306 RMK A01 T10151102  RH  051%=      5-min Rain = 0
KTR1 120140Z 01014G19KT M02/M10 A306 RMK A01 T10151103  RH  051%=      5-min Rain = 0
KTR1 120141Z 00013KT M02/M10 A306 RMK A01 T10151103  RH  051%=      5-min Rain = 0
KTR1 120142Z 01014G19KT M02/M10 A306 RMK A01 T10151102  RH  052%=      5-min Rain = 0
KTR1 120143Z 00013KT M02/M10 A306 RMK A01 T10161102  RH  052%=      5-min Rain = 0
KTR1 120144Z 00013KT M02/M10 A306 RMK A01 T10151103  RH  051%=      5-min Rain = 0
KTR1 120145Z 01010KT M02/M10 A306 RMK A01 T10161102  RH  052%=      5-min Rain = 0
KTR1 120146Z 01014KT M02/M10 A306 RMK A01 T10161101  RH  052%=      5-min Rain = 0
KTR1 120147Z 01014KT M02/M10 A3061 RMK A01 T10161103  RH  052%=      5-min Rain = 0
KTR1 120148Z 01015KT M02/M10 A3061 RMK A01 T10161103  RH  052%=      5-min Rain = 0
KTR1 120149Z 00013KT M02/M10 A3061 RMK A01 T10161103  RH  051%=      5-min Rain = 0
KTR1 120150Z 01013KT M02/M10 A3061 RMK A01 T10161103  RH  052%=      5-min Rain = 0
KTR1 120151Z 00012KT M02/M10 A3061 RMK A01 T10161103  RH  052%=      5-min Rain = 0
KTR1 120152Z 01012KT M02/M10 A306 RMK A01 T10171102  RH  052%=      5-min Rain = 0
KTR1 120153Z 01014KT M02/M10 A306 RMK A01 T10171102  RH  052%=      5-min Rain = 0
KTR1 120154Z 00016KT M02/M10 A3061 RMK A01 T10171103  RH  052%=      5-min Rain = 0
KTR1 120155Z 01014KT M02/M10 A3061 RMK A01 T10171104  RH  052%=      5-min Rain = 0
KTR1 120156Z 00013KT M02/M10 A3061 RMK A01 T10171104  RH  052%=      5-min Rain = 0
KTR1 120157Z 00012KT M02/M10 A3061 RMK A01 T10171103  RH  052%=      5-min Rain = 0
KTR1 120158Z 00010KT M02/M10 A3061 RMK A01 T10171102  RH  053%=      5-min Rain = 0
KTR1 120159Z 01011KT M02/M10 A3061 RMK A01 T10171100  RH  053%=      5-min Rain = 0
KTR1 120200Z 00014KT M02/M10 A3061 RMK A01 T10181100  RH  053%=      5-min Rain = 0
KTR1 120201Z 01018G23KT M02/M10 A3062 RMK A01 T10181103  RH  052%=      5-min Rain = 0
KTR1 120202Z 01015G20KT M02/M10 A3062 RMK A01 T10171104  RH  052%=      5-min Rain = 0
KTR1 120203Z 00015G20KT M02/M10 A3062 RMK A01 T10171104  RH  052%=      5-min Rain = 0
KTR1 120204Z 01013KT M02/M10 A3062 RMK A01 T10171104  RH  052%=      5-min Rain = 0
KTR1 120205Z 01013KT M02/M10 A3062 RMK A01 T10171102  RH  052%=      5-min Rain = 0
KTR1 120206Z 01012KT M02/M10 A3061 RMK A01 T10181101  RH  053%=      5-min Rain = 0
KTR1 120207Z 01011KT M02/M10 A3061 RMK A01 T10181101  RH  053%=      5-min Rain = 0
KTR1 120208Z 00012G18KT M02/M10 A3061 RMK A01 T10181100  RH  053%=      5-min Rain = 0
KTR1 120209Z 00015KT M02/M10 A3061 RMK A01 T10181101  RH  053%=      5-min Rain = 0
KTR1 120210Z 00014KT M02/M10 A3062 RMK A01 T10181102  RH  053%=      5-min Rain = 0
KTR1 120211Z 00012KT M02/M10 A3062 RMK A01 T10181102  RH  053%=      5-min Rain = 0
KTR1 120212Z 00012KT M02/M10 A3062 RMK A01 T10181102  RH  053%=      5-min Rain = 0
KTR1 120213Z 01011KT M02/M10 A3062 RMK A01 T10181101  RH  053%=      5-min Rain = 0
KTR1 120214Z 01015G20KT M02/M10 A3062 RMK A01 T10191101  RH  054%=      5-min Rain = 0
KTR1 120215Z 01016KT M02/M10 A3062 RMK A01 T10191102  RH  053%=      5-min Rain = 0
KTR1 120216Z 36017KT M02/M10 A3062 RMK A01 T10191103  RH  053%=      5-min Rain = 0
KTR1 120217Z 36014G21KT M02/M10 A3062 RMK A01 T10191103  RH  053%=      5-min Rain = 0
KTR1 120218Z 00013KT M02/M10 A3062 RMK A01 T10191103  RH  053%=      5-min Rain = 0
KTR1 120219Z 00018KT M02/M10 A3062 RMK A01 T10191102  RH  053%=      5-min Rain = 0
KTR1 120220Z 36018KT M02/M10 A3062 RMK A01 T10191104  RH  052%=      5-min Rain = 0
KTR1 120221Z 00017KT M02/M10 A3062 RMK A01 T10191104  RH  052%=      5-min Rain = 0
KTR1 120222Z 36017G24KT M02/M10 A3062 RMK A01 T10191104  RH  052%=      5-min Rain = 0
KTR1 120223Z 01018G24KT M02/M10 A3062 RMK A01 T10181103  RH  052%=      5-min Rain = 0
KTR1 120224Z 00019KT M02/M10 A3062 RMK A01 T10191104  RH  052%=      5-min Rain = 0
KTR1 120225Z 00018G23KT M02/M10 A3062 RMK A01 T10191104  RH  052%=      5-min Rain = 0
KTR1 120226Z 36017G23KT M02/M10 A3062 RMK A01 T10191104  RH  052%=      5-min Rain = 0
KTR1 120227Z 36017KT M02/M11 A3062 RMK A01 T10191105  RH  052%=      5-min Rain = 0
KTR1 120228Z 36014G20KT M02/M10 A3062 RMK A01 T10191103  RH  053%=      5-min Rain = 0
KTR1 120229Z 36017KT M02/M10 A3063 RMK A01 T10191102  RH  053%=      5-min Rain = 0
KTR1 120230Z 36016G23KT M02/M10 A3063 RMK A01 T10191103  RH  053%=      5-min Rain = 0
KTR1 120231Z 36016G21KT M02/M10 A3063 RMK A01 T10191103  RH  053%=      5-min Rain = 0
KTR1 120232Z 00015KT M02/M10 A3062 RMK A01 T10191102  RH  053%=      5-min Rain = 0
KTR1 120233Z 36014KT M02/M10 A3062 RMK A01 T10201103  RH  053%=      5-min Rain = 0
KTR1 120234Z 00015G22KT M02/M10 A3062 RMK A01 T10191103  RH  053%=      5-min Rain = 0
KTR1 120235Z 01016G23KT M02/M10 A3062 RMK A01 T10201103  RH  053%=      5-min Rain = 0
KTR1 120236Z 00014KT M02/M10 A3062 RMK A01 T10201103  RH  053%=      5-min Rain = 0
KTR1 120237Z 00013G18KT M02/M10 A3062 RMK A01 T10201102  RH  053%=      5-min Rain = 0
KTR1 120238Z 00013KT M02/M10 A3062 RMK A01 T10201101  RH  054%=      5-min Rain = 0
KTR1 120239Z 36011KT M02/M10 A3062 RMK A01 T10201101  RH  054%=      5-min Rain = 0
KTR1 120240Z 01013KT M02/M10 A3063 RMK A01 T10211101  RH  054%=      5-min Rain = 0
KTR1 120241Z 00013KT M02/M10 A3063 RMK A01 T10211101  RH  054%=      5-min Rain = 0
KTR1 120242Z 00013KT M02/M10 A3063 RMK A01 T10201102  RH  054%=      5-min Rain = 0
KTR1 120243Z 00011KT M02/M10 A3063 RMK A01 T10211101  RH  054%=      5-min Rain = 0
KTR1 120244Z 00012G18KT M02/M10 A3063 RMK A01 T10211100  RH  055%=      5-min Rain = 0
KTR1 120245Z 36017KT M02/M10 A3063 RMK A01 T10211101  RH  055%=      5-min Rain = 0
KTR1 120246Z 36014G19KT M02/M10 A3063 RMK A01 T10211103  RH  054%=      5-min Rain = 0
KTR1 120247Z 36014KT M02/M10 A3063 RMK A01 T10211102  RH  054%=      5-min Rain = 0
KTR1 120248Z 36015G20KT M02/M10 A3063 RMK A01 T10211102  RH  054%=      5-min Rain = 0
KTR1 120249Z 36014KT M02/M10 A3063 RMK A01 T10211103  RH  053%=      5-min Rain = 0
KTR1 120250Z 00012KT M02/M10 A3063 RMK A01 T10211102  RH  054%=      5-min Rain = 0
KTR1 120251Z 00013G22KT M02/M10 A3063 RMK A01 T10211100  RH  055%=      5-min Rain = 0
KTR1 120252Z 01017G23KT M02/M10 A3063 RMK A01 T10211101  RH  054%=      5-min Rain = 0
KTR1 120253Z 00016G22KT M02/M10 A3063 RMK A01 T10211103  RH  054%=      5-min Rain = 0
KTR1 120254Z 36017KT M02/M10 A3063 RMK A01 T10221104  RH  053%=      5-min Rain = 0
KTR1 120255Z 01019KT M02/M11 A3063 RMK A01 T10211105  RH  053%=      5-min Rain = 0
KTR1 120256Z 01017KT M02/M11 A3063 RMK A01 T10211106  RH  052%=      5-min Rain = 0
KTR1 120257Z 00015KT M02/M11 A3063 RMK A01 T10211105  RH  053%=      5-min Rain = 0
KTR1 120258Z 36015KT M02/M10 A3064 RMK A01 T10211104  RH  053%=      5-min Rain = 0
KTR1 120259Z 36015KT M02/M10 A3064 RMK A01 T10211103  RH  053%=      5-min Rain = 0
KTR1 120300Z 36016KT M02/M10 A3064 RMK A01 T10221104  RH  054%=      5-min Rain = 0
KTR1 120301Z 36016KT M02/M11 A3064 RMK A01 T10221105  RH  053%=      5-min Rain = 0
KTR1 120302Z 36015KT M02/M10 A3064 RMK A01 T10221104  RH  053%=      5-min Rain = 0
KTR1 120303Z 36015G20KT M02/M10 A3064 RMK A01 T10221104  RH  053%=      5-min Rain = 0
KTR1 120304Z 00013KT M02/M10 A3063 RMK A01 T10221103  RH  054%=      5-min Rain = 0
KTR1 120305Z 00013G19KT M02/M10 A3063 RMK A01 T10221102  RH  054%=      5-min Rain = 0
KTR1 120306Z 00018KT M02/M10 A3063 RMK A01 T10231103  RH  054%=      5-min Rain = 0
KTR1 120307Z 00017KT M02/M10 A3063 RMK A01 T10231104  RH  054%=      5-min Rain = 0
KTR1 120308Z 01016KT M02/M11 A3063 RMK A01 T10231105  RH  053%=      5-min Rain = 0
KTR1 120309Z 36016G21KT M02/M10 A3063 RMK A01 T10231104  RH  054%=      5-min Rain = 0
KTR1 120310Z 35014KT M02/M10 A3063 RMK A01 T10231104  RH  054%=      5-min Rain = 0
KTR1 120311Z 36020G25KT M02/M10 A3064 RMK A01 T10231103  RH  054%=      5-min Rain = 0
KTR1 120312Z 00019G24KT M02/M11 A3064 RMK A01 T10231106  RH  053%=      5-min Rain = 0
KTR1 120313Z 36015KT M02/M11 A3064 RMK A01 T10231106  RH  053%=      5-min Rain = 0
KTR1 120314Z 00015G20KT M02/M11 A3064 RMK A01 T10231105  RH  053%=      5-min Rain = 0
KTR1 120315Z 00018G23KT M02/M11 A3064 RMK A01 T10231105  RH  053%=      5-min Rain = 0
KTR1 120316Z 00015G21KT M02/M11 A3064 RMK A01 T10231106  RH  053%=      5-min Rain = 0
KTR1 120317Z 01016KT M02/M11 A3064 RMK A01 T10231106  RH  053%=      5-min Rain = 0
KTR1 120318Z 00016KT M02/M11 A3064 RMK A01 T10231105  RH  053%=      5-min Rain = 0
KTR1 120319Z 00016KT M02/M11 A3064 RMK A01 T10231105  RH  053%=      5-min Rain = 0
KTR1 120320Z 00015KT M02/M11 A3064 RMK A01 T10231105  RH  053%=      5-min Rain = 0
KTR1 120321Z 36015KT M02/M11 A3064 RMK A01 T10231106  RH  053%=      5-min Rain = 0
KTR1 120322Z 00013KT M02/M11 A3064 RMK A01 T10231106  RH  053%=      5-min Rain = 0
KTR1 120323Z 00016KT M02/M11 A3064 RMK A01 T10241105  RH  053%=      5-min Rain = 0
KTR1 120324Z 00016G21KT M02/M11 A3064 RMK A01 T10241106  RH  053%=      5-min Rain = 0
KTR1 120325Z 01015G20KT M02/M11 A3064 RMK A01 T10241106  RH  053%=      5-min Rain = 0
KTR1 120326Z 00015KT M02/M11 A3064 RMK A01 T10241106  RH  053%=      5-min Rain = 0
KTR1 120327Z 00015KT M02/M11 A3064 RMK A01 T10241106  RH  053%=      5-min Rain = 0
KTR1 120328Z 00014G19KT M02/M10 A3064 RMK A01 T10241104  RH  054%=      5-min Rain = 0
KTR1 120329Z 00016KT M02/M11 A3064 RMK A01 T10241106  RH  053%=      5-min Rain = 0
KTR1 120330Z 00016G21KT M02/M11 A3064 RMK A01 T10241106  RH  053%=      5-min Rain = 0
KTR1 120331Z 01016G21KT M02/M11 A3064 RMK A01 T10241107  RH  053%=      5-min Rain = 0
KTR1 120332Z 00014KT M02/M11 A3064 RMK A01 T10241107  RH  053%=      5-min Rain = 0
KTR1 120333Z 01013KT M02/M11 A3064 RMK A01 T10241106  RH  054%=      5-min Rain = 0
KTR1 120334Z 00013KT M03/M11 A3064 RMK A01 T10251105  RH  054%=      5-min Rain = 0
KTR1 120335Z 00017G23KT M02/M11 A3064 RMK A01 T10241106  RH  054%=      5-min Rain = 0
KTR1 120336Z 00017G22KT M03/M11 A3064 RMK A01 T10251108  RH  053%=      5-min Rain = 0
KTR1 120337Z 00015KT M03/M11 A3064 RMK A01 T10251108  RH  053%=      5-min Rain = 0
KTR1 120338Z 00018G23KT M03/M11 A3064 RMK A01 T10251109  RH  052%=      5-min Rain = 0
KTR1 120339Z 00013G18KT M03/M11 A3064 RMK A01 T10251111  RH  052%=      5-min Rain = 0
KTR1 120340Z 00013KT M03/M11 A3064 RMK A01 T10251108  RH  053%=      5-min Rain = 0
KTR1 120341Z 01014KT M03/M11 A3064 RMK A01 T10251107  RH  053%=      5-min Rain = 0
KTR1 120342Z 00011KT M03/M11 A3064 RMK A01 T10251108  RH  053%=      5-min Rain = 0
KTR1 120343Z 01013KT M03/M11 A3064 RMK A01 T10251107  RH  053%=      5-min Rain = 0
KTR1 120344Z 00015KT M03/M11 A3064 RMK A01 T10251108  RH  053%=      5-min Rain = 0
KTR1 120345Z 00015KT M03/M11 A3064 RMK A01 T10251109  RH  052%=      5-min Rain = 0
KTR1 120346Z 00017G23KT M03/M11 A3064 RMK A01 T10251110  RH  052%=      5-min Rain = 0
KTR1 120347Z 01016KT M03/M11 A3064 RMK A01 T10251111  RH  052%=      5-min Rain = 0
KTR1 120348Z 36020KT M03/M11 A3064 RMK A01 T10251112  RH  051%=      5-min Rain = 0
KTR1 120349Z 00019KT M03/M11 A3064 RMK A01 T10251113  RH  051%=      5-min Rain = 0
KTR1 120350Z 00017G22KT M03/M11 A3064 RMK A01 T10251113  RH  051%=      5-min Rain = 0
KTR1 120351Z 01018G23KT M03/M11 A3064 RMK A01 T10251114  RH  051%=      5-min Rain = 0
KTR1 120352Z 36016KT M03/M11 A3064 RMK A01 T10251113  RH  051%=      5-min Rain = 0
KTR1 120353Z 01014KT M03/M11 A3064 RMK A01 T10251111  RH  052%=      5-min Rain = 0
KTR1 120354Z 00015KT M03/M11 A3064 RMK A01 T10251111  RH  052%=      5-min Rain = 0
KTR1 120355Z 35014G21KT M03/M11 A3064 RMK A01 T10261111  RH  052%=      5-min Rain = 0
KTR1 120356Z 00016KT M03/M11 A3064 RMK A01 T10261111  RH  052%=      5-min Rain = 0
KTR1 120357Z 36016KT M03/M11 A3064 RMK A01 T10251111  RH  052%=      5-min Rain = 0
KTR1 120358Z 00015KT M03/M11 A3064 RMK A01 T10261113  RH  051%=      5-min Rain = 0
KTR1 120359Z 01014KT M03/M11 A3065 RMK A01 T10261112  RH  051%=      5-min Rain = 0
KTR1 120400Z 00013KT M03/M11 A3065 RMK A01 T10261111  RH  052%=      5-min Rain = 0
KTR1 120401Z 00013G22KT M03/M11 A3065 RMK A01 T10261111  RH  052%=      5-min Rain = 0
KTR1 120402Z 36019G24KT M03/M11 A3065 RMK A01 T10261113  RH  051%=      5-min Rain = 0
KTR1 120403Z 00015KT M03/M11 A3065 RMK A01 T10261114  RH  051%=      5-min Rain = 0
KTR1 120404Z 36018G23KT M03/M11 A3064 RMK A01 T10261114  RH  051%=      5-min Rain = 0
KTR1 120405Z 00015G20KT M03/M11 A3065 RMK A01 T10261114  RH  051%=      5-min Rain = 0
KTR1 120406Z 36014KT M03/M11 A3064 RMK A01 T10261112  RH  052%=      5-min Rain = 0
KTR1 120407Z 36014KT M03/M11 A3065 RMK A01 T10271112  RH  052%=      5-min Rain = 0
KTR1 120408Z 36015G21KT M03/M11 A3065 RMK A01 T10271112  RH  052%=      5-min Rain = 0
KTR1 120409Z 36015G20KT M03/M11 A3065 RMK A01 T10271112  RH  052%=      5-min Rain = 0
KTR1 120410Z 36014KT M03/M11 A3065 RMK A01 T10271113  RH  052%=      5-min Rain = 0
KTR1 120411Z 01016KT M03/M11 A3065 RMK A01 T10271114  RH  051%=      5-min Rain = 0
KTR1 120412Z 35014KT M03/M11 A3065 RMK A01 T10271113  RH  051%=      5-min Rain = 0
KTR1 120413Z 00012KT M03/M11 A3065 RMK A01 T10271113  RH  052%=      5-min Rain = 0
KTR1 120414Z 00013KT M03/M11 A3065 RMK A01 T10271113  RH  052%=      5-min Rain = 0
KTR1 120415Z 36014G20KT M03/M11 A3065 RMK A01 T10271112  RH  052%=      5-min Rain = 0
KTR1 120416Z 36017KT M03/M11 A3065 RMK A01 T10271113  RH  052%=      5-min Rain = 0
KTR1 120417Z 36014KT M03/M11 A3065 RMK A01 T10271114  RH  051%=      5-min Rain = 0
KTR1 120418Z 00017KT M03/M11 A3065 RMK A01 T10271114  RH  051%=      5-min Rain = 0
KTR1 120419Z 00018KT M03/M12 A3065 RMK A01 T10271115  RH  051%=      5-min Rain = 0
KTR1 120420Z 00015KT M03/M12 A3065 RMK A01 T10281116  RH  051%=      5-min Rain = 0
KTR1 120421Z 00016G26KT M03/M12 A3066 RMK A01 T10271115  RH  051%=      5-min Rain = 0
KTR1 120422Z 00015G20KT M03/M12 A3066 RMK A01 T10271115  RH  051%=      5-min Rain = 0
KTR1 120423Z 01017KT M03/M11 A3066 RMK A01 T10271114  RH  051%=      5-min Rain = 0
KTR1 120424Z 01012KT M03/M11 A3066 RMK A01 T10271114  RH  051%=      5-min Rain = 0
KTR1 120425Z 00014KT M03/M11 A3066 RMK A01 T10281114  RH  051%=      5-min Rain = 0
KTR1 120426Z 00012KT M03/M12 A3066 RMK A01 T10281115  RH  051%=      5-min Rain = 0
KTR1 120427Z 01013KT M03/M11 A3066 RMK A01 T10281114  RH  052%=      5-min Rain = 0
KTR1 120428Z 00013G18KT M03/M11 A3066 RMK A01 T10281114  RH  052%=      5-min Rain = 0
KTR1 120429Z 36013G18KT M03/M12 A3066 RMK A01 T10281115  RH  051%=      5-min Rain = 0
KTR1 120430Z 00018KT M03/M11 A3066 RMK A01 T10281114  RH  052%=      5-min Rain = 0
KTR1 120431Z 00018KT M03/M12 A3066 RMK A01 T10281116  RH  051%=      5-min Rain = 0
KTR1 120432Z 01014KT M03/M12 A3066 RMK A01 T10281116  RH  051%=      5-min Rain = 0
KTR1 120433Z 36013KT M03/M11 A3066 RMK A01 T10281114  RH  052%=      5-min Rain = 0
KTR1 120434Z 00013G18KT M03/M11 A3066 RMK A01 T10291113  RH  052%=      5-min Rain = 0
KTR1 120435Z 00015KT M03/M12 A3066 RMK A01 T10291115  RH  052%=      5-min Rain = 0
KTR1 120436Z 00012KT M03/M12 A3066 RMK A01 T10291115  RH  052%=      5-min Rain = 0
KTR1 120437Z 36012G18KT M03/M11 A3066 RMK A01 T10291113  RH  052%=      5-min Rain = 0
KTR1 120438Z 00017G22KT M03/M12 A3066 RMK A01 T10291115  RH  052%=      5-min Rain = 0
KTR1 120439Z 00014KT M03/M12 A3066 RMK A01 T10291116  RH  051%=      5-min Rain = 0
KTR1 120440Z 01013KT M03/M12 A3066 RMK A01 T10291116  RH  051%=      5-min Rain = 0
KTR1 120441Z 00014KT M03/M12 A3066 RMK A01 T10291115  RH  052%=      5-min Rain = 0
KTR1 120442Z 01015KT M03/M12 A3066 RMK A01 T10291116  RH  051%=      5-min Rain = 0
KTR1 120443Z 00013KT M03/M12 A3066 RMK A01 T10291116  RH  051%=      5-min Rain = 0
KTR1 120444Z 00014KT M03/M12 A3066 RMK A01 T10291116  RH  051%=      5-min Rain = 0
KTR1 120445Z 00016G21KT M03/M12 A3066 RMK A01 T10301117  RH  051%=      5-min Rain = 0
KTR1 120446Z 36017KT M03/M12 A3066 RMK A01 T10301118  RH  051%=      5-min Rain = 0
KTR1 120447Z 36016G21KT M03/M12 A3066 RMK A01 T10301120  RH  050%=      5-min Rain = 0
KTR1 120448Z 36017KT M03/M12 A3066 RMK A01 T10301119  RH  050%=      5-min Rain = 0
KTR1 120449Z 00015KT M03/M12 A3066 RMK A01 T10301119  RH  050%=      5-min Rain = 0
KTR1 120450Z 01015KT M03/M12 A3066 RMK A01 T10301118  RH  051%=      5-min Rain = 0
KTR1 120451Z 36017KT M03/M12 A3066 RMK A01 T10301118  RH  050%=      5-min Rain = 0
KTR1 120452Z 00018KT M03/M12 A3066 RMK A01 T10301119  RH  050%=      5-min Rain = 0
KTR1 120453Z 00017KT M03/M12 A3066 RMK A01 T10301120  RH  050%=      5-min Rain = 0
KTR1 120454Z 00017G22KT M03/M12 A3066 RMK A01 T10301119  RH  050%=      5-min Rain = 0
KTR1 120455Z 00017KT M03/M12 A3066 RMK A01 T10301119  RH  050%=      5-min Rain = 0
KTR1 120456Z 00012KT M03/M12 A3066 RMK A01 T10301119  RH  050%=      5-min Rain = 0
KTR1 120457Z 36013KT M03/M12 A3066 RMK A01 T10301117  RH  051%=      5-min Rain = 0
KTR1 120458Z 00011KT M03/M12 A3066 RMK A01 T10311116  RH  052%=      5-min Rain = 0
KTR1 120459Z 01012KT M03/M12 A3066 RMK A01 T10321116  RH  052%=      5-min Rain = 0
KTR1 120500Z 00013KT M03/M12 A3066 RMK A01 T10321115  RH  052%=      5-min Rain = 0
KTR1 120501Z 00010KT M03/M12 A3066 RMK A01 T10321115  RH  053%=      5-min Rain = 0
KTR1 120502Z 01011KT M03/M12 A3066 RMK A01 T10321115  RH  053%=      5-min Rain = 0
KTR1 120503Z 36012KT M03/M11 A3066 RMK A01 T10321114  RH  053%=      5-min Rain = 0
KTR1 120504Z 36013KT M03/M12 A3066 RMK A01 T10331115  RH  053%=      5-min Rain = 0
KTR1 120505Z 00011KT M03/M12 A3066 RMK A01 T10331116  RH  053%=      5-min Rain = 0
KTR1 120506Z 00011KT M03/M11 A3066 RMK A01 T10331114  RH  053%=      5-min Rain = 0
KTR1 120507Z 00010KT M03/M11 A3066 RMK A01 T10331113  RH  054%=      5-min Rain = 0
KTR1 120508Z 01012G18KT M03/M11 A3066 RMK A01 T10331113  RH  054%=      5-min Rain = 0
KTR1 120509Z 00014KT M03/M11 A3066 RMK A01 T10331113  RH  054%=      5-min Rain = 0
KTR1 120510Z 36014KT M03/M11 A3066 RMK A01 T10331114  RH  054%=      5-min Rain = 0
KTR1 120511Z 00012KT M03/M11 A3066 RMK A01 T10341114  RH  054%=      5-min Rain = 0
KTR1 120512Z 00013KT M03/M11 A3066 RMK A01 T10331114  RH  054%=      5-min Rain = 0
KTR1 120513Z 36010KT M03/M11 A3066 RMK A01 T10331114  RH  054%=      5-min Rain = 0
KTR1 120514Z 36015KT M03/M11 A3066 RMK A01 T10341114  RH  054%=      5-min Rain = 0
KTR1 120515Z 01015KT M03/M12 A3066 RMK A01 T10341117  RH  053%=      5-min Rain = 0
KTR1 120516Z 01015KT M03/M12 A3066 RMK A01 T10331118  RH  052%=      5-min Rain = 0
KTR1 120517Z 36014KT M03/M12 A3066 RMK A01 T10331119  RH  052%=      5-min Rain = 0
KTR1 120518Z 36011KT M03/M12 A3066 RMK A01 T10331117  RH  052%=      5-min Rain = 0
KTR1 120519Z 00011KT M03/M12 A3066 RMK A01 T10341116  RH  053%=      5-min Rain = 0
KTR1 120520Z 01015KT M03/M12 A3066 RMK A01 T10341116  RH  053%=      5-min Rain = 0
KTR1 120521Z 36015KT M03/M12 A3066 RMK A01 T10341117  RH  052%=      5-min Rain = 0
KTR1 120522Z 35015KT M03/M12 A3066 RMK A01 T10341119  RH  052%=      5-min Rain = 0
KTR1 120523Z 00015KT M03/M12 A3066 RMK A01 T10341119  RH  052%=      5-min Rain = 0
KTR1 120524Z 00012KT M03/M12 A3066 RMK A01 T10341119  RH  052%=      5-min Rain = 0
KTR1 120525Z 00012KT M03/M12 A3066 RMK A01 T10341117  RH  053%=      5-min Rain = 0
KTR1 120526Z 35013G20KT M04/M12 A3066 RMK A01 T10351117  RH  053%=      5-min Rain = 0
KTR1 120527Z 36014G20KT M04/M12 A3066 RMK A01 T10351119  RH  052%=      5-min Rain = 0
KTR1 120528Z 00014KT M04/M12 A3066 RMK A01 T10351120  RH  052%=      5-min Rain = 0
KTR1 120529Z 00013G18KT M04/M12 A3066 RMK A01 T10351120  RH  052%=      5-min Rain = 0
KTR1 120530Z 00014KT M04/M12 A3066 RMK A01 T10351119  RH  052%=      5-min Rain = 0
KTR1 120531Z 00015G22KT M04/M12 A3066 RMK A01 T10351119  RH  052%=      5-min Rain = 0
KTR1 120532Z 01016KT M04/M12 A3066 RMK A01 T10351121  RH  051%=      5-min Rain = 0
KTR1 120533Z 00016G22KT M04/M12 A3066 RMK A01 T10351122  RH  051%=      5-min Rain = 0
KTR1 120534Z 36020KT M04/M12 A3066 RMK A01 T10351123  RH  050%=      5-min Rain = 0
KTR1 120535Z 00014KT M04/M12 A3066 RMK A01 T10351124  RH  050%=      5-min Rain = 0
KTR1 120536Z 01012KT M04/M12 A3066 RMK A01 T10351122  RH  051%=      5-min Rain = 0
KTR1 120537Z 00012KT M04/M12 A3066 RMK A01 T10351122  RH  051%=      5-min Rain = 0
KTR1 120538Z 00012KT M04/M12 A3066 RMK A01 T10361121  RH  052%=      5-min Rain = 0
KTR1 120539Z 00012KT M04/M12 A3066 RMK A01 T10361120  RH  052%=      5-min Rain = 0
KTR1 120540Z 00016KT M04/M12 A3067 RMK A01 T10371120  RH  052%=      5-min Rain = 0
KTR1 120541Z 00013KT M04/M12 A3067 RMK A01 T10361121  RH  052%=      5-min Rain = 0
KTR1 120542Z 00015G20KT M04/M12 A3066 RMK A01 T10371121  RH  052%=      5-min Rain = 0
KTR1 120543Z 36016G22KT M04/M12 A3067 RMK A01 T10371123  RH  051%=      5-min Rain = 0
KTR1 120544Z 00017KT M04/M12 A3067 RMK A01 T10361123  RH  051%=      5-min Rain = 0
KTR1 120545Z 00015G20KT M04/M13 A3067 RMK A01 T10371125  RH  050%=      5-min Rain = 0
KTR1 120546Z 00013G19KT M04/M12 A3067 RMK A01 T10371124  RH  051%=      5-min Rain = 0
KTR1 120547Z 36013KT M04/M12 A3067 RMK A01 T10361123  RH  051%=      5-min Rain = 0
KTR1 120548Z 00013KT M04/M12 A3067 RMK A01 T10371123  RH  051%=      5-min Rain = 0
KTR1 120549Z 01011KT M04/M12 A3067 RMK A01 T10371123  RH  051%=      5-min Rain = 0
KTR1 120550Z 00011KT M04/M12 A3067 RMK A01 T10371122  RH  052%=      5-min Rain = 0
KTR1 120551Z 01016G21KT M04/M12 A3067 RMK A01 T10381123  RH  052%=      5-min Rain = 0
KTR1 120552Z 01014KT M04/M12 A3067 RMK A01 T10381124  RH  051%=      5-min Rain = 0
KTR1 120553Z 00012KT M04/M12 A3067 RMK A01 T10381123  RH  052%=      5-min Rain = 0
KTR1 120554Z 00012KT M04/M12 A3067 RMK A01 T10381123  RH  052%=      5-min Rain = 0
KTR1 120555Z 01012KT M04/M12 A3067 RMK A01 T10381122  RH  052%=      5-min Rain = 0
KTR1 120556Z 01014G20KT M04/M12 A3067 RMK A01 T10381124  RH  052%=      5-min Rain = 0
KTR1 120557Z 00015KT M04/M13 A3067 RMK A01 T10381125  RH  051%=      5-min Rain = 0
KTR1 120558Z 01012KT M04/M12 A3067 RMK A01 T10381124  RH  051%=      5-min Rain = 0
KTR1 120559Z 00014KT M04/M12 A3067 RMK A01 T10381124  RH  052%=      5-min Rain = 0

Page generated in 0.0723 seconds.